<?xml version="1.0" encoding="UTF-8"?>
<gpx xmlns="http://www.topografix.com/GPX/1/1" xmlns:gpsies="https://www.gpsies.com/GPX/1/0" creator="GPSies https://www.gpsies.com - britania-luzit" version="1.1" xmlns:xsi="http://www.w3.org/2001/XMLSchema-instance" xsi:schemaLocation="http://www.topografix.com/GPX/1/1 http://www.topografix.com/GPX/1/1/gpx.xsd https://www.gpsies.com/GPX/1/0 https://www.gpsies.com/gpsies.xsd">
  <metadata>
    <name>britania-luzit</name>
    <author>
      <name>igor968</name>
      <link href="https://www.gpsies.com/mapUser.do?username=igor968">
        <text>igor968 on GPSies.com</text>
        <type>GPSiesUserOnWeb</type>
      </link>
    </author>
    <link href="https://www.gpsies.com/map.do?fileId=rlsqyumprabqdogq">
      <text>britania-luzit on GPSies.com</text>
      <type>trackOnWeb</type>
    </link>
    <time>2019-02-21T12:54:31Z</time>
    <extensions>
      <gpsies:property>round trip</gpsies:property>
      <gpsies:trackLengthMeter>36015.642928779234</gpsies:trackLengthMeter>
      <gpsies:totalAscentMeter>579.0</gpsies:totalAscentMeter>
      <gpsies:totalDescentMeter>581.0</gpsies:totalDescentMeter>
      <gpsies:minHeightMeter>123.0</gpsies:minHeightMeter>
      <gpsies:maxHeightMeter>333.0</gpsies:maxHeightMeter>
    </extensions>
  </metadata>
  <trk>
    <name>britania-luzit on GPSies.com</name>
    <link href="https://www.gpsies.com/map.do?fileId=rlsqyumprabqdogq">
      <type>trackOnWeb</type>
    </link>
    <link href="https://www.gpsies.com/charts/rl/map/rlsqyumprabqdogq_map.png">
      <type>elevationChartUrlMap</type>
    </link>
    <link href="https://www.gpsies.com/charts/rl/mapThumb/rlsqyumprabqdogq_mapThumb.png">
      <type>elevationChartUrlMapThumb</type>
    </link>
    <link href="https://www.gpsies.com/charts/rl/tab/rlsqyumprabqdogq_tab.png">
      <type>elevationChartUrlTab</type>
    </link>
    <trkseg>
      <trkpt lat="31.67763490" lon="34.92985540">
        <ele>323.00000</ele>
        <time>2010-01-01T00:00:00Z</time>
      </trkpt>
      <trkpt lat="31.67771000" lon="34.92755000">
        <ele>333.00000</ele>
        <time>2010-01-01T00:01:18Z</time>
      </trkpt>
      <trkpt lat="31.67771000" lon="34.92714000">
        <ele>326.00000</ele>
        <time>2010-01-01T00:01:32Z</time>
      </trkpt>
      <trkpt lat="31.67772000" lon="34.92702000">
        <ele>324.00000</ele>
        <time>2010-01-01T00:01:36Z</time>
      </trkpt>
      <trkpt lat="31.67783000" lon="34.92675000">
        <ele>320.00000</ele>
        <time>2010-01-01T00:01:46Z</time>
      </trkpt>
      <trkpt lat="31.67812000" lon="34.92612000">
        <ele>314.00000</ele>
        <time>2010-01-01T00:02:11Z</time>
      </trkpt>
      <trkpt lat="31.67837000" lon="34.92569000">
        <ele>308.00000</ele>
        <time>2010-01-01T00:02:29Z</time>
      </trkpt>
      <trkpt lat="31.67858000" lon="34.92554000">
        <ele>307.00000</ele>
        <time>2010-01-01T00:02:38Z</time>
      </trkpt>
      <trkpt lat="31.67886000" lon="34.92547000">
        <ele>308.00000</ele>
        <time>2010-01-01T00:02:50Z</time>
      </trkpt>
      <trkpt lat="31.67916000" lon="34.92532000">
        <ele>306.00000</ele>
        <time>2010-01-01T00:03:03Z</time>
      </trkpt>
      <trkpt lat="31.67928000" lon="34.92523000">
        <ele>306.00000</ele>
        <time>2010-01-01T00:03:09Z</time>
      </trkpt>
      <trkpt lat="31.67935000" lon="34.92508000">
        <ele>305.00000</ele>
        <time>2010-01-01T00:03:14Z</time>
      </trkpt>
      <trkpt lat="31.67956000" lon="34.92464000">
        <ele>303.00000</ele>
        <time>2010-01-01T00:03:32Z</time>
      </trkpt>
      <trkpt lat="31.67960000" lon="34.92426000">
        <ele>299.00000</ele>
        <time>2010-01-01T00:03:45Z</time>
      </trkpt>
      <trkpt lat="31.67958000" lon="34.92413000">
        <ele>298.00000</ele>
        <time>2010-01-01T00:03:49Z</time>
      </trkpt>
      <trkpt lat="31.67957000" lon="34.92393000">
        <ele>296.00000</ele>
        <time>2010-01-01T00:03:56Z</time>
      </trkpt>
      <trkpt lat="31.67954000" lon="34.92381000">
        <ele>295.00000</ele>
        <time>2010-01-01T00:04:00Z</time>
      </trkpt>
      <trkpt lat="31.67946000" lon="34.92339000">
        <ele>292.00000</ele>
        <time>2010-01-01T00:04:15Z</time>
      </trkpt>
      <trkpt lat="31.67941000" lon="34.92328000">
        <ele>291.00000</ele>
        <time>2010-01-01T00:04:19Z</time>
      </trkpt>
      <trkpt lat="31.67933000" lon="34.92300000">
        <ele>290.00000</ele>
        <time>2010-01-01T00:04:29Z</time>
      </trkpt>
      <trkpt lat="31.67909000" lon="34.92233000">
        <ele>287.00000</ele>
        <time>2010-01-01T00:04:54Z</time>
      </trkpt>
      <trkpt lat="31.67904000" lon="34.92213000">
        <ele>286.00000</ele>
        <time>2010-01-01T00:05:01Z</time>
      </trkpt>
      <trkpt lat="31.67903000" lon="34.92196000">
        <ele>285.00000</ele>
        <time>2010-01-01T00:05:07Z</time>
      </trkpt>
      <trkpt lat="31.67904000" lon="34.92166000">
        <ele>284.00000</ele>
        <time>2010-01-01T00:05:17Z</time>
      </trkpt>
      <trkpt lat="31.67910000" lon="34.92138000">
        <ele>282.00000</ele>
        <time>2010-01-01T00:05:27Z</time>
      </trkpt>
      <trkpt lat="31.67925000" lon="34.92099000">
        <ele>279.00000</ele>
        <time>2010-01-01T00:05:41Z</time>
      </trkpt>
      <trkpt lat="31.67943000" lon="34.92062000">
        <ele>278.00000</ele>
        <time>2010-01-01T00:05:56Z</time>
      </trkpt>
      <trkpt lat="31.67945000" lon="34.92054000">
        <ele>277.00000</ele>
        <time>2010-01-01T00:05:59Z</time>
      </trkpt>
      <trkpt lat="31.67943000" lon="34.92037000">
        <ele>275.00000</ele>
        <time>2010-01-01T00:06:05Z</time>
      </trkpt>
      <trkpt lat="31.67944000" lon="34.92025000">
        <ele>274.00000</ele>
        <time>2010-01-01T00:06:09Z</time>
      </trkpt>
      <trkpt lat="31.67955000" lon="34.91997000">
        <ele>271.00000</ele>
        <time>2010-01-01T00:06:19Z</time>
      </trkpt>
      <trkpt lat="31.67966000" lon="34.91962000">
        <ele>266.00000</ele>
        <time>2010-01-01T00:06:32Z</time>
      </trkpt>
      <trkpt lat="31.67972000" lon="34.91951000">
        <ele>264.00000</ele>
        <time>2010-01-01T00:06:36Z</time>
      </trkpt>
      <trkpt lat="31.67972000" lon="34.91935000">
        <ele>262.00000</ele>
        <time>2010-01-01T00:06:42Z</time>
      </trkpt>
      <trkpt lat="31.67969000" lon="34.91927000">
        <ele>262.00000</ele>
        <time>2010-01-01T00:06:45Z</time>
      </trkpt>
      <trkpt lat="31.67965000" lon="34.91921000">
        <ele>261.00000</ele>
        <time>2010-01-01T00:06:47Z</time>
      </trkpt>
      <trkpt lat="31.67912000" lon="34.91876000">
        <ele>258.00000</ele>
        <time>2010-01-01T00:07:14Z</time>
      </trkpt>
      <trkpt lat="31.67899000" lon="34.91868000">
        <ele>256.00000</ele>
        <time>2010-01-01T00:07:20Z</time>
      </trkpt>
      <trkpt lat="31.67874000" lon="34.91863000">
        <ele>254.00000</ele>
        <time>2010-01-01T00:07:30Z</time>
      </trkpt>
      <trkpt lat="31.67864000" lon="34.91865000">
        <ele>254.00000</ele>
        <time>2010-01-01T00:07:34Z</time>
      </trkpt>
      <trkpt lat="31.67857000" lon="34.91863000">
        <ele>254.00000</ele>
        <time>2010-01-01T00:07:37Z</time>
      </trkpt>
      <trkpt lat="31.67848000" lon="34.91856000">
        <ele>255.00000</ele>
        <time>2010-01-01T00:07:41Z</time>
      </trkpt>
      <trkpt lat="31.67846000" lon="34.91844000">
        <ele>255.00000</ele>
        <time>2010-01-01T00:07:45Z</time>
      </trkpt>
      <trkpt lat="31.67855000" lon="34.91803000">
        <ele>253.00000</ele>
        <time>2010-01-01T00:08:00Z</time>
      </trkpt>
      <trkpt lat="31.67861000" lon="34.91787000">
        <ele>253.00000</ele>
        <time>2010-01-01T00:08:05Z</time>
      </trkpt>
      <trkpt lat="31.67873000" lon="34.91760000">
        <ele>254.00000</ele>
        <time>2010-01-01T00:08:16Z</time>
      </trkpt>
      <trkpt lat="31.67884000" lon="34.91750000">
        <ele>254.00000</ele>
        <time>2010-01-01T00:08:21Z</time>
      </trkpt>
      <trkpt lat="31.67900000" lon="34.91742000">
        <ele>253.00000</ele>
        <time>2010-01-01T00:08:28Z</time>
      </trkpt>
      <trkpt lat="31.67916000" lon="34.91733000">
        <ele>253.00000</ele>
        <time>2010-01-01T00:08:36Z</time>
      </trkpt>
      <trkpt lat="31.67927000" lon="34.91730000">
        <ele>252.00000</ele>
        <time>2010-01-01T00:08:40Z</time>
      </trkpt>
      <trkpt lat="31.67949000" lon="34.91730000">
        <ele>250.00000</ele>
        <time>2010-01-01T00:08:49Z</time>
      </trkpt>
      <trkpt lat="31.67955000" lon="34.91726000">
        <ele>249.00000</ele>
        <time>2010-01-01T00:08:52Z</time>
      </trkpt>
      <trkpt lat="31.67966000" lon="34.91711000">
        <ele>251.00000</ele>
        <time>2010-01-01T00:08:58Z</time>
      </trkpt>
      <trkpt lat="31.67977000" lon="34.91691000">
        <ele>255.00000</ele>
        <time>2010-01-01T00:09:06Z</time>
      </trkpt>
      <trkpt lat="31.67986000" lon="34.91678000">
        <ele>256.00000</ele>
        <time>2010-01-01T00:09:12Z</time>
      </trkpt>
      <trkpt lat="31.67993000" lon="34.91655000">
        <ele>259.00000</ele>
        <time>2010-01-01T00:09:20Z</time>
      </trkpt>
      <trkpt lat="31.68017000" lon="34.91615000">
        <ele>258.00000</ele>
        <time>2010-01-01T00:09:37Z</time>
      </trkpt>
      <trkpt lat="31.68024000" lon="34.91587000">
        <ele>259.00000</ele>
        <time>2010-01-01T00:09:47Z</time>
      </trkpt>
      <trkpt lat="31.68036000" lon="34.91521000">
        <ele>255.00000</ele>
        <time>2010-01-01T00:10:10Z</time>
      </trkpt>
      <trkpt lat="31.68033000" lon="34.91438000">
        <ele>257.00000</ele>
        <time>2010-01-01T00:10:38Z</time>
      </trkpt>
      <trkpt lat="31.68035000" lon="34.91425000">
        <ele>258.00000</ele>
        <time>2010-01-01T00:10:43Z</time>
      </trkpt>
      <trkpt lat="31.68041000" lon="34.91402000">
        <ele>258.00000</ele>
        <time>2010-01-01T00:10:51Z</time>
      </trkpt>
      <trkpt lat="31.68051000" lon="34.91376000">
        <ele>257.00000</ele>
        <time>2010-01-01T00:11:01Z</time>
      </trkpt>
      <trkpt lat="31.68079000" lon="34.91337000">
        <ele>255.00000</ele>
        <time>2010-01-01T00:11:18Z</time>
      </trkpt>
      <trkpt lat="31.68098000" lon="34.91323000">
        <ele>253.00000</ele>
        <time>2010-01-01T00:11:27Z</time>
      </trkpt>
      <trkpt lat="31.68106000" lon="34.91313000">
        <ele>253.00000</ele>
        <time>2010-01-01T00:11:32Z</time>
      </trkpt>
      <trkpt lat="31.68125000" lon="34.91296000">
        <ele>251.00000</ele>
        <time>2010-01-01T00:11:41Z</time>
      </trkpt>
      <trkpt lat="31.68152000" lon="34.91281000">
        <ele>248.00000</ele>
        <time>2010-01-01T00:11:53Z</time>
      </trkpt>
      <trkpt lat="31.68210000" lon="34.91239000">
        <ele>248.00000</ele>
        <time>2010-01-01T00:12:21Z</time>
      </trkpt>
      <trkpt lat="31.68299000" lon="34.91184000">
        <ele>245.00000</ele>
        <time>2010-01-01T00:13:01Z</time>
      </trkpt>
      <trkpt lat="31.68319000" lon="34.91168000">
        <ele>246.00000</ele>
        <time>2010-01-01T00:13:11Z</time>
      </trkpt>
      <trkpt lat="31.68334000" lon="34.91154000">
        <ele>246.00000</ele>
        <time>2010-01-01T00:13:18Z</time>
      </trkpt>
      <trkpt lat="31.68338000" lon="34.91150000">
        <ele>246.00000</ele>
        <time>2010-01-01T00:13:20Z</time>
      </trkpt>
      <trkpt lat="31.68362000" lon="34.91138000">
        <ele>244.00000</ele>
        <time>2010-01-01T00:13:31Z</time>
      </trkpt>
      <trkpt lat="31.68394000" lon="34.91129000">
        <ele>240.00000</ele>
        <time>2010-01-01T00:13:44Z</time>
      </trkpt>
      <trkpt lat="31.68406000" lon="34.91123000">
        <ele>240.00000</ele>
        <time>2010-01-01T00:13:49Z</time>
      </trkpt>
      <trkpt lat="31.68424000" lon="34.91106000">
        <ele>238.00000</ele>
        <time>2010-01-01T00:13:58Z</time>
      </trkpt>
      <trkpt lat="31.68444000" lon="34.91081000">
        <ele>237.00000</ele>
        <time>2010-01-01T00:14:10Z</time>
      </trkpt>
      <trkpt lat="31.68457000" lon="34.91063000">
        <ele>235.00000</ele>
        <time>2010-01-01T00:14:18Z</time>
      </trkpt>
      <trkpt lat="31.68484000" lon="34.91000000">
        <ele>236.00000</ele>
        <time>2010-01-01T00:14:42Z</time>
      </trkpt>
      <trkpt lat="31.68498000" lon="34.90977000">
        <ele>233.00000</ele>
        <time>2010-01-01T00:14:52Z</time>
      </trkpt>
      <trkpt lat="31.68524000" lon="34.90946000">
        <ele>229.00000</ele>
        <time>2010-01-01T00:15:07Z</time>
      </trkpt>
      <trkpt lat="31.68603000" lon="34.91042000">
        <ele>221.00000</ele>
        <time>2010-01-01T00:15:52Z</time>
      </trkpt>
      <trkpt lat="31.68603000" lon="34.91041000">
        <ele>221.00000</ele>
        <time>2010-01-01T00:15:52Z</time>
      </trkpt>
      <trkpt lat="31.68617000" lon="34.91058000">
        <ele>219.00000</ele>
        <time>2010-01-01T00:16:01Z</time>
      </trkpt>
      <trkpt lat="31.68637000" lon="34.91076000">
        <ele>219.00000</ele>
        <time>2010-01-01T00:16:11Z</time>
      </trkpt>
      <trkpt lat="31.68652000" lon="34.91086000">
        <ele>220.00000</ele>
        <time>2010-01-01T00:16:18Z</time>
      </trkpt>
      <trkpt lat="31.68669000" lon="34.91091000">
        <ele>220.00000</ele>
        <time>2010-01-01T00:16:25Z</time>
      </trkpt>
      <trkpt lat="31.68689000" lon="34.91095000">
        <ele>222.00000</ele>
        <time>2010-01-01T00:16:33Z</time>
      </trkpt>
      <trkpt lat="31.68741000" lon="34.91086000">
        <ele>223.00000</ele>
        <time>2010-01-01T00:16:54Z</time>
      </trkpt>
      <trkpt lat="31.68768000" lon="34.91087000">
        <ele>222.00000</ele>
        <time>2010-01-01T00:17:04Z</time>
      </trkpt>
      <trkpt lat="31.68788000" lon="34.91095000">
        <ele>223.00000</ele>
        <time>2010-01-01T00:17:13Z</time>
      </trkpt>
      <trkpt lat="31.68807000" lon="34.91105000">
        <ele>224.00000</ele>
        <time>2010-01-01T00:17:21Z</time>
      </trkpt>
      <trkpt lat="31.68858000" lon="34.91143000">
        <ele>230.00000</ele>
        <time>2010-01-01T00:17:45Z</time>
      </trkpt>
      <trkpt lat="31.68902000" lon="34.91171000">
        <ele>231.00000</ele>
        <time>2010-01-01T00:18:05Z</time>
      </trkpt>
      <trkpt lat="31.68935000" lon="34.91104000">
        <ele>232.00000</ele>
        <time>2010-01-01T00:18:32Z</time>
      </trkpt>
      <trkpt lat="31.68934000" lon="34.91074000">
        <ele>232.00000</ele>
        <time>2010-01-01T00:18:42Z</time>
      </trkpt>
      <trkpt lat="31.68925000" lon="34.91036000">
        <ele>232.00000</ele>
        <time>2010-01-01T00:18:56Z</time>
      </trkpt>
      <trkpt lat="31.68911000" lon="34.90998000">
        <ele>230.00000</ele>
        <time>2010-01-01T00:19:10Z</time>
      </trkpt>
      <trkpt lat="31.68899000" lon="34.90971000">
        <ele>227.00000</ele>
        <time>2010-01-01T00:19:20Z</time>
      </trkpt>
      <trkpt lat="31.68885000" lon="34.90951000">
        <ele>225.00000</ele>
        <time>2010-01-01T00:19:29Z</time>
      </trkpt>
      <trkpt lat="31.68880000" lon="34.90940000">
        <ele>225.00000</ele>
        <time>2010-01-01T00:19:33Z</time>
      </trkpt>
      <trkpt lat="31.68883000" lon="34.90914000">
        <ele>223.00000</ele>
        <time>2010-01-01T00:19:42Z</time>
      </trkpt>
      <trkpt lat="31.68881000" lon="34.90907000">
        <ele>223.00000</ele>
        <time>2010-01-01T00:19:45Z</time>
      </trkpt>
      <trkpt lat="31.68872000" lon="34.90898000">
        <ele>222.00000</ele>
        <time>2010-01-01T00:19:49Z</time>
      </trkpt>
      <trkpt lat="31.68861000" lon="34.90893000">
        <ele>222.00000</ele>
        <time>2010-01-01T00:19:54Z</time>
      </trkpt>
      <trkpt lat="31.68845000" lon="34.90894000">
        <ele>221.00000</ele>
        <time>2010-01-01T00:20:00Z</time>
      </trkpt>
      <trkpt lat="31.68820000" lon="34.90898000">
        <ele>218.00000</ele>
        <time>2010-01-01T00:20:10Z</time>
      </trkpt>
      <trkpt lat="31.68810000" lon="34.90897000">
        <ele>216.00000</ele>
        <time>2010-01-01T00:20:14Z</time>
      </trkpt>
      <trkpt lat="31.68788000" lon="34.90893000">
        <ele>214.00000</ele>
        <time>2010-01-01T00:20:23Z</time>
      </trkpt>
      <trkpt lat="31.68781000" lon="34.90890000">
        <ele>214.00000</ele>
        <time>2010-01-01T00:20:26Z</time>
      </trkpt>
      <trkpt lat="31.68779000" lon="34.90884000">
        <ele>214.00000</ele>
        <time>2010-01-01T00:20:29Z</time>
      </trkpt>
      <trkpt lat="31.68780000" lon="34.90874000">
        <ele>214.00000</ele>
        <time>2010-01-01T00:20:32Z</time>
      </trkpt>
      <trkpt lat="31.68802000" lon="34.90812000">
        <ele>212.00000</ele>
        <time>2010-01-01T00:20:55Z</time>
      </trkpt>
      <trkpt lat="31.68815000" lon="34.90759000">
        <ele>210.00000</ele>
        <time>2010-01-01T00:21:14Z</time>
      </trkpt>
      <trkpt lat="31.68818000" lon="34.90749000">
        <ele>209.00000</ele>
        <time>2010-01-01T00:21:17Z</time>
      </trkpt>
      <trkpt lat="31.68839000" lon="34.90692000">
        <ele>210.00000</ele>
        <time>2010-01-01T00:21:38Z</time>
      </trkpt>
      <trkpt lat="31.68871000" lon="34.90591000">
        <ele>209.00000</ele>
        <time>2010-01-01T00:22:15Z</time>
      </trkpt>
      <trkpt lat="31.68884000" lon="34.90570000">
        <ele>207.00000</ele>
        <time>2010-01-01T00:22:24Z</time>
      </trkpt>
      <trkpt lat="31.68901000" lon="34.90547000">
        <ele>205.00000</ele>
        <time>2010-01-01T00:22:34Z</time>
      </trkpt>
      <trkpt lat="31.68948000" lon="34.90502000">
        <ele>205.00000</ele>
        <time>2010-01-01T00:22:59Z</time>
      </trkpt>
      <trkpt lat="31.68969000" lon="34.90480000">
        <ele>204.00000</ele>
        <time>2010-01-01T00:23:10Z</time>
      </trkpt>
      <trkpt lat="31.69024000" lon="34.90407000">
        <ele>201.00000</ele>
        <time>2010-01-01T00:23:43Z</time>
      </trkpt>
      <trkpt lat="31.69037000" lon="34.90392000">
        <ele>200.00000</ele>
        <time>2010-01-01T00:23:50Z</time>
      </trkpt>
      <trkpt lat="31.69060000" lon="34.90366000">
        <ele>200.00000</ele>
        <time>2010-01-01T00:24:03Z</time>
      </trkpt>
      <trkpt lat="31.69091000" lon="34.90326000">
        <ele>199.00000</ele>
        <time>2010-01-01T00:24:22Z</time>
      </trkpt>
      <trkpt lat="31.69101000" lon="34.90318000">
        <ele>198.00000</ele>
        <time>2010-01-01T00:24:26Z</time>
      </trkpt>
      <trkpt lat="31.69139000" lon="34.90298000">
        <ele>195.00000</ele>
        <time>2010-01-01T00:24:43Z</time>
      </trkpt>
      <trkpt lat="31.69163000" lon="34.90289000">
        <ele>197.00000</ele>
        <time>2010-01-01T00:24:53Z</time>
      </trkpt>
      <trkpt lat="31.69176000" lon="34.90292000">
        <ele>199.00000</ele>
        <time>2010-01-01T00:24:59Z</time>
      </trkpt>
      <trkpt lat="31.69188000" lon="34.90299000">
        <ele>200.00000</ele>
        <time>2010-01-01T00:25:04Z</time>
      </trkpt>
      <trkpt lat="31.69198000" lon="34.90313000">
        <ele>202.00000</ele>
        <time>2010-01-01T00:25:10Z</time>
      </trkpt>
      <trkpt lat="31.69207000" lon="34.90328000">
        <ele>202.00000</ele>
        <time>2010-01-01T00:25:16Z</time>
      </trkpt>
      <trkpt lat="31.69212000" lon="34.90334000">
        <ele>203.00000</ele>
        <time>2010-01-01T00:25:19Z</time>
      </trkpt>
      <trkpt lat="31.69219000" lon="34.90338000">
        <ele>203.00000</ele>
        <time>2010-01-01T00:25:22Z</time>
      </trkpt>
      <trkpt lat="31.69227000" lon="34.90339000">
        <ele>203.00000</ele>
        <time>2010-01-01T00:25:26Z</time>
      </trkpt>
      <trkpt lat="31.69243000" lon="34.90334000">
        <ele>203.00000</ele>
        <time>2010-01-01T00:25:32Z</time>
      </trkpt>
      <trkpt lat="31.69257000" lon="34.90318000">
        <ele>202.00000</ele>
        <time>2010-01-01T00:25:40Z</time>
      </trkpt>
      <trkpt lat="31.69286000" lon="34.90269000">
        <ele>199.00000</ele>
        <time>2010-01-01T00:26:00Z</time>
      </trkpt>
      <trkpt lat="31.69298000" lon="34.90253000">
        <ele>198.00000</ele>
        <time>2010-01-01T00:26:08Z</time>
      </trkpt>
      <trkpt lat="31.69331000" lon="34.90231000">
        <ele>195.00000</ele>
        <time>2010-01-01T00:26:23Z</time>
      </trkpt>
      <trkpt lat="31.69349000" lon="34.90224000">
        <ele>195.00000</ele>
        <time>2010-01-01T00:26:30Z</time>
      </trkpt>
      <trkpt lat="31.69395000" lon="34.90221000">
        <ele>197.00000</ele>
        <time>2010-01-01T00:26:49Z</time>
      </trkpt>
      <trkpt lat="31.69411000" lon="34.90215000">
        <ele>198.00000</ele>
        <time>2010-01-01T00:26:56Z</time>
      </trkpt>
      <trkpt lat="31.69424000" lon="34.90202000">
        <ele>198.00000</ele>
        <time>2010-01-01T00:27:02Z</time>
      </trkpt>
      <trkpt lat="31.69440000" lon="34.90177000">
        <ele>197.00000</ele>
        <time>2010-01-01T00:27:13Z</time>
      </trkpt>
      <trkpt lat="31.69451000" lon="34.90167000">
        <ele>197.00000</ele>
        <time>2010-01-01T00:27:19Z</time>
      </trkpt>
      <trkpt lat="31.69462000" lon="34.90162000">
        <ele>196.00000</ele>
        <time>2010-01-01T00:27:23Z</time>
      </trkpt>
      <trkpt lat="31.69468000" lon="34.90155000">
        <ele>195.00000</ele>
        <time>2010-01-01T00:27:27Z</time>
      </trkpt>
      <trkpt lat="31.69473000" lon="34.90148000">
        <ele>195.00000</ele>
        <time>2010-01-01T00:27:30Z</time>
      </trkpt>
      <trkpt lat="31.69475000" lon="34.90141000">
        <ele>194.00000</ele>
        <time>2010-01-01T00:27:32Z</time>
      </trkpt>
      <trkpt lat="31.69478000" lon="34.90116000">
        <ele>194.00000</ele>
        <time>2010-01-01T00:27:41Z</time>
      </trkpt>
      <trkpt lat="31.69474000" lon="34.90081000">
        <ele>194.00000</ele>
        <time>2010-01-01T00:27:53Z</time>
      </trkpt>
      <trkpt lat="31.69460000" lon="34.90034000">
        <ele>191.00000</ele>
        <time>2010-01-01T00:28:10Z</time>
      </trkpt>
      <trkpt lat="31.69460000" lon="34.90001000">
        <ele>190.00000</ele>
        <time>2010-01-01T00:28:21Z</time>
      </trkpt>
      <trkpt lat="31.69462000" lon="34.89956000">
        <ele>190.00000</ele>
        <time>2010-01-01T00:28:37Z</time>
      </trkpt>
      <trkpt lat="31.69465000" lon="34.89934000">
        <ele>190.00000</ele>
        <time>2010-01-01T00:28:44Z</time>
      </trkpt>
      <trkpt lat="31.69471000" lon="34.89909000">
        <ele>190.00000</ele>
        <time>2010-01-01T00:28:53Z</time>
      </trkpt>
      <trkpt lat="31.69491000" lon="34.89848000">
        <ele>188.00000</ele>
        <time>2010-01-01T00:29:15Z</time>
      </trkpt>
      <trkpt lat="31.69508000" lon="34.89814000">
        <ele>188.00000</ele>
        <time>2010-01-01T00:29:29Z</time>
      </trkpt>
      <trkpt lat="31.69535000" lon="34.89786000">
        <ele>187.00000</ele>
        <time>2010-01-01T00:29:43Z</time>
      </trkpt>
      <trkpt lat="31.69570000" lon="34.89755000">
        <ele>187.00000</ele>
        <time>2010-01-01T00:30:01Z</time>
      </trkpt>
      <trkpt lat="31.69583000" lon="34.89733000">
        <ele>187.00000</ele>
        <time>2010-01-01T00:30:10Z</time>
      </trkpt>
      <trkpt lat="31.69599000" lon="34.89697000">
        <ele>188.00000</ele>
        <time>2010-01-01T00:30:24Z</time>
      </trkpt>
      <trkpt lat="31.69621000" lon="34.89619000">
        <ele>185.00000</ele>
        <time>2010-01-01T00:30:52Z</time>
      </trkpt>
      <trkpt lat="31.69638000" lon="34.89572000">
        <ele>183.00000</ele>
        <time>2010-01-01T00:31:09Z</time>
      </trkpt>
      <trkpt lat="31.69648000" lon="34.89552000">
        <ele>182.00000</ele>
        <time>2010-01-01T00:31:17Z</time>
      </trkpt>
      <trkpt lat="31.69679000" lon="34.89506000">
        <ele>182.00000</ele>
        <time>2010-01-01T00:31:37Z</time>
      </trkpt>
      <trkpt lat="31.69691000" lon="34.89499000">
        <ele>182.00000</ele>
        <time>2010-01-01T00:31:42Z</time>
      </trkpt>
      <trkpt lat="31.69690000" lon="34.89501000">
        <ele>182.00000</ele>
        <time>2010-01-01T00:31:43Z</time>
      </trkpt>
      <trkpt lat="31.69708000" lon="34.89499000">
        <ele>183.00000</ele>
        <time>2010-01-01T00:31:50Z</time>
      </trkpt>
      <trkpt lat="31.69746000" lon="34.89462000">
        <ele>183.00000</ele>
        <time>2010-01-01T00:32:10Z</time>
      </trkpt>
      <trkpt lat="31.69774000" lon="34.89426000">
        <ele>181.00000</ele>
        <time>2010-01-01T00:32:27Z</time>
      </trkpt>
      <trkpt lat="31.69786000" lon="34.89416000">
        <ele>180.00000</ele>
        <time>2010-01-01T00:32:32Z</time>
      </trkpt>
      <trkpt lat="31.69841000" lon="34.89396000">
        <ele>179.00000</ele>
        <time>2010-01-01T00:32:56Z</time>
      </trkpt>
      <trkpt lat="31.69844000" lon="34.89389000">
        <ele>179.00000</ele>
        <time>2010-01-01T00:32:58Z</time>
      </trkpt>
      <trkpt lat="31.69845000" lon="34.89381000">
        <ele>179.00000</ele>
        <time>2010-01-01T00:33:01Z</time>
      </trkpt>
      <trkpt lat="31.69850000" lon="34.89372000">
        <ele>179.00000</ele>
        <time>2010-01-01T00:33:05Z</time>
      </trkpt>
      <trkpt lat="31.69863000" lon="34.89361000">
        <ele>178.00000</ele>
        <time>2010-01-01T00:33:11Z</time>
      </trkpt>
      <trkpt lat="31.69895000" lon="34.89338000">
        <ele>177.00000</ele>
        <time>2010-01-01T00:33:26Z</time>
      </trkpt>
      <trkpt lat="31.69942000" lon="34.89322000">
        <ele>176.00000</ele>
        <time>2010-01-01T00:33:46Z</time>
      </trkpt>
      <trkpt lat="31.69947000" lon="34.89317000">
        <ele>176.00000</ele>
        <time>2010-01-01T00:33:48Z</time>
      </trkpt>
      <trkpt lat="31.69924000" lon="34.89235000">
        <ele>178.00000</ele>
        <time>2010-01-01T00:34:18Z</time>
      </trkpt>
      <trkpt lat="31.69929000" lon="34.89224000">
        <ele>179.00000</ele>
        <time>2010-01-01T00:34:22Z</time>
      </trkpt>
      <trkpt lat="31.69942000" lon="34.89211000">
        <ele>178.00000</ele>
        <time>2010-01-01T00:34:29Z</time>
      </trkpt>
      <trkpt lat="31.69953000" lon="34.89197000">
        <ele>180.00000</ele>
        <time>2010-01-01T00:34:35Z</time>
      </trkpt>
      <trkpt lat="31.69992000" lon="34.89137000">
        <ele>183.00000</ele>
        <time>2010-01-01T00:35:01Z</time>
      </trkpt>
      <trkpt lat="31.70010000" lon="34.89116000">
        <ele>181.00000</ele>
        <time>2010-01-01T00:35:11Z</time>
      </trkpt>
      <trkpt lat="31.70054000" lon="34.89082000">
        <ele>181.00000</ele>
        <time>2010-01-01T00:35:32Z</time>
      </trkpt>
      <trkpt lat="31.70109000" lon="34.89027000">
        <ele>177.00000</ele>
        <time>2010-01-01T00:36:01Z</time>
      </trkpt>
      <trkpt lat="31.70131000" lon="34.89012000">
        <ele>180.00000</ele>
        <time>2010-01-01T00:36:11Z</time>
      </trkpt>
      <trkpt lat="31.70164000" lon="34.88995000">
        <ele>179.00000</ele>
        <time>2010-01-01T00:36:26Z</time>
      </trkpt>
      <trkpt lat="31.70233000" lon="34.88967000">
        <ele>177.00000</ele>
        <time>2010-01-01T00:36:55Z</time>
      </trkpt>
      <trkpt lat="31.70276000" lon="34.88946000">
        <ele>178.00000</ele>
        <time>2010-01-01T00:37:14Z</time>
      </trkpt>
      <trkpt lat="31.70324000" lon="34.88932000">
        <ele>178.00000</ele>
        <time>2010-01-01T00:37:33Z</time>
      </trkpt>
      <trkpt lat="31.70358000" lon="34.88929000">
        <ele>178.00000</ele>
        <time>2010-01-01T00:37:47Z</time>
      </trkpt>
      <trkpt lat="31.70467000" lon="34.88936000">
        <ele>177.00000</ele>
        <time>2010-01-01T00:38:31Z</time>
      </trkpt>
      <trkpt lat="31.70555000" lon="34.88950000">
        <ele>176.00000</ele>
        <time>2010-01-01T00:39:06Z</time>
      </trkpt>
      <trkpt lat="31.70584000" lon="34.88952000">
        <ele>175.00000</ele>
        <time>2010-01-01T00:39:18Z</time>
      </trkpt>
      <trkpt lat="31.70656000" lon="34.88944000">
        <ele>177.00000</ele>
        <time>2010-01-01T00:39:47Z</time>
      </trkpt>
      <trkpt lat="31.70701000" lon="34.88941000">
        <ele>177.00000</ele>
        <time>2010-01-01T00:40:05Z</time>
      </trkpt>
      <trkpt lat="31.70727000" lon="34.88937000">
        <ele>176.00000</ele>
        <time>2010-01-01T00:40:15Z</time>
      </trkpt>
      <trkpt lat="31.70779000" lon="34.88928000">
        <ele>175.00000</ele>
        <time>2010-01-01T00:40:36Z</time>
      </trkpt>
      <trkpt lat="31.70792000" lon="34.88928000">
        <ele>175.00000</ele>
        <time>2010-01-01T00:40:42Z</time>
      </trkpt>
      <trkpt lat="31.70806000" lon="34.88931000">
        <ele>176.00000</ele>
        <time>2010-01-01T00:40:47Z</time>
      </trkpt>
      <trkpt lat="31.70820000" lon="34.88937000">
        <ele>176.00000</ele>
        <time>2010-01-01T00:40:53Z</time>
      </trkpt>
      <trkpt lat="31.70831000" lon="34.88947000">
        <ele>177.00000</ele>
        <time>2010-01-01T00:40:59Z</time>
      </trkpt>
      <trkpt lat="31.70866000" lon="34.88992000">
        <ele>174.00000</ele>
        <time>2010-01-01T00:41:20Z</time>
      </trkpt>
      <trkpt lat="31.70878000" lon="34.89002000">
        <ele>173.00000</ele>
        <time>2010-01-01T00:41:25Z</time>
      </trkpt>
      <trkpt lat="31.70887000" lon="34.89006000">
        <ele>172.00000</ele>
        <time>2010-01-01T00:41:29Z</time>
      </trkpt>
      <trkpt lat="31.70904000" lon="34.89011000">
        <ele>172.00000</ele>
        <time>2010-01-01T00:41:36Z</time>
      </trkpt>
      <trkpt lat="31.70928000" lon="34.89014000">
        <ele>172.00000</ele>
        <time>2010-01-01T00:41:46Z</time>
      </trkpt>
      <trkpt lat="31.70958000" lon="34.89012000">
        <ele>170.00000</ele>
        <time>2010-01-01T00:41:58Z</time>
      </trkpt>
      <trkpt lat="31.70972000" lon="34.89007000">
        <ele>169.00000</ele>
        <time>2010-01-01T00:42:04Z</time>
      </trkpt>
      <trkpt lat="31.70989000" lon="34.88995000">
        <ele>168.00000</ele>
        <time>2010-01-01T00:42:12Z</time>
      </trkpt>
      <trkpt lat="31.71001000" lon="34.88982000">
        <ele>167.00000</ele>
        <time>2010-01-01T00:42:18Z</time>
      </trkpt>
      <trkpt lat="31.71011000" lon="34.88965000">
        <ele>167.00000</ele>
        <time>2010-01-01T00:42:25Z</time>
      </trkpt>
      <trkpt lat="31.71021000" lon="34.88940000">
        <ele>167.00000</ele>
        <time>2010-01-01T00:42:35Z</time>
      </trkpt>
      <trkpt lat="31.71025000" lon="34.88918000">
        <ele>167.00000</ele>
        <time>2010-01-01T00:42:42Z</time>
      </trkpt>
      <trkpt lat="31.71027000" lon="34.88891000">
        <ele>166.00000</ele>
        <time>2010-01-01T00:42:52Z</time>
      </trkpt>
      <trkpt lat="31.71024000" lon="34.88841000">
        <ele>162.00000</ele>
        <time>2010-01-01T00:43:09Z</time>
      </trkpt>
      <trkpt lat="31.71026000" lon="34.88806000">
        <ele>161.00000</ele>
        <time>2010-01-01T00:43:21Z</time>
      </trkpt>
      <trkpt lat="31.71018000" lon="34.88715000">
        <ele>164.00000</ele>
        <time>2010-01-01T00:43:52Z</time>
      </trkpt>
      <trkpt lat="31.71069000" lon="34.88713000">
        <ele>162.00000</ele>
        <time>2010-01-01T00:44:12Z</time>
      </trkpt>
      <trkpt lat="31.71250000" lon="34.88715000">
        <ele>160.00000</ele>
        <time>2010-01-01T00:45:25Z</time>
      </trkpt>
      <trkpt lat="31.71249000" lon="34.88715000">
        <ele>160.00000</ele>
        <time>2010-01-01T00:45:25Z</time>
      </trkpt>
      <trkpt lat="31.71277000" lon="34.88715000">
        <ele>159.00000</ele>
        <time>2010-01-01T00:45:36Z</time>
      </trkpt>
      <trkpt lat="31.71331000" lon="34.88697000">
        <ele>159.00000</ele>
        <time>2010-01-01T00:45:59Z</time>
      </trkpt>
      <trkpt lat="31.71393000" lon="34.88693000">
        <ele>160.00000</ele>
        <time>2010-01-01T00:46:24Z</time>
      </trkpt>
      <trkpt lat="31.71430000" lon="34.88697000">
        <ele>161.00000</ele>
        <time>2010-01-01T00:46:39Z</time>
      </trkpt>
      <trkpt lat="31.71440030" lon="34.88698300">
        <ele>161.00000</ele>
        <time>2010-01-01T00:46:43Z</time>
      </trkpt>
      <trkpt lat="31.71428000" lon="34.88724000">
        <ele>161.00000</ele>
        <time>2010-01-01T00:46:53Z</time>
      </trkpt>
      <trkpt lat="31.71424000" lon="34.88746000">
        <ele>161.00000</ele>
        <time>2010-01-01T00:47:00Z</time>
      </trkpt>
      <trkpt lat="31.71424000" lon="34.88760000">
        <ele>162.00000</ele>
        <time>2010-01-01T00:47:05Z</time>
      </trkpt>
      <trkpt lat="31.71433000" lon="34.88815000">
        <ele>165.00000</ele>
        <time>2010-01-01T00:47:24Z</time>
      </trkpt>
      <trkpt lat="31.71433000" lon="34.88825000">
        <ele>166.00000</ele>
        <time>2010-01-01T00:47:27Z</time>
      </trkpt>
      <trkpt lat="31.71428000" lon="34.88844000">
        <ele>166.00000</ele>
        <time>2010-01-01T00:47:34Z</time>
      </trkpt>
      <trkpt lat="31.71403000" lon="34.88891000">
        <ele>166.00000</ele>
        <time>2010-01-01T00:47:53Z</time>
      </trkpt>
      <trkpt lat="31.71399000" lon="34.88917000">
        <ele>168.00000</ele>
        <time>2010-01-01T00:48:02Z</time>
      </trkpt>
      <trkpt lat="31.71397000" lon="34.88973000">
        <ele>168.00000</ele>
        <time>2010-01-01T00:48:21Z</time>
      </trkpt>
      <trkpt lat="31.71413000" lon="34.88976000">
        <ele>170.00000</ele>
        <time>2010-01-01T00:48:28Z</time>
      </trkpt>
      <trkpt lat="31.71438000" lon="34.88976000">
        <ele>173.00000</ele>
        <time>2010-01-01T00:48:38Z</time>
      </trkpt>
      <trkpt lat="31.71480000" lon="34.88965000">
        <ele>175.00000</ele>
        <time>2010-01-01T00:48:55Z</time>
      </trkpt>
      <trkpt lat="31.71518000" lon="34.88949000">
        <ele>175.00000</ele>
        <time>2010-01-01T00:49:11Z</time>
      </trkpt>
      <trkpt lat="31.71578000" lon="34.88930000">
        <ele>179.00000</ele>
        <time>2010-01-01T00:49:36Z</time>
      </trkpt>
      <trkpt lat="31.71594000" lon="34.88922000">
        <ele>179.00000</ele>
        <time>2010-01-01T00:49:43Z</time>
      </trkpt>
      <trkpt lat="31.71609000" lon="34.88919000">
        <ele>180.00000</ele>
        <time>2010-01-01T00:49:49Z</time>
      </trkpt>
      <trkpt lat="31.71629000" lon="34.88908000">
        <ele>179.00000</ele>
        <time>2010-01-01T00:49:58Z</time>
      </trkpt>
      <trkpt lat="31.71681000" lon="34.88891000">
        <ele>178.00000</ele>
        <time>2010-01-01T00:50:19Z</time>
      </trkpt>
      <trkpt lat="31.71686000" lon="34.88887000">
        <ele>178.00000</ele>
        <time>2010-01-01T00:50:22Z</time>
      </trkpt>
      <trkpt lat="31.71717000" lon="34.88877000">
        <ele>175.00000</ele>
        <time>2010-01-01T00:50:35Z</time>
      </trkpt>
      <trkpt lat="31.71762000" lon="34.88860000">
        <ele>171.00000</ele>
        <time>2010-01-01T00:50:54Z</time>
      </trkpt>
      <trkpt lat="31.71781000" lon="34.88841000">
        <ele>169.00000</ele>
        <time>2010-01-01T00:51:04Z</time>
      </trkpt>
      <trkpt lat="31.71788000" lon="34.88840000">
        <ele>168.00000</ele>
        <time>2010-01-01T00:51:06Z</time>
      </trkpt>
      <trkpt lat="31.71820000" lon="34.88848000">
        <ele>166.00000</ele>
        <time>2010-01-01T00:51:20Z</time>
      </trkpt>
      <trkpt lat="31.71840000" lon="34.88836000">
        <ele>165.00000</ele>
        <time>2010-01-01T00:51:29Z</time>
      </trkpt>
      <trkpt lat="31.71857000" lon="34.88842000">
        <ele>165.00000</ele>
        <time>2010-01-01T00:51:36Z</time>
      </trkpt>
      <trkpt lat="31.72164000" lon="34.88755000">
        <ele>177.00000</ele>
        <time>2010-01-01T00:53:42Z</time>
      </trkpt>
      <trkpt lat="31.72219000" lon="34.88739000">
        <ele>177.00000</ele>
        <time>2010-01-01T00:54:05Z</time>
      </trkpt>
      <trkpt lat="31.72324000" lon="34.88688000">
        <ele>183.00000</ele>
        <time>2010-01-01T00:54:50Z</time>
      </trkpt>
      <trkpt lat="31.72432000" lon="34.88677000">
        <ele>187.00000</ele>
        <time>2010-01-01T00:55:34Z</time>
      </trkpt>
      <trkpt lat="31.72547000" lon="34.88669000">
        <ele>188.00000</ele>
        <time>2010-01-01T00:56:20Z</time>
      </trkpt>
      <trkpt lat="31.72638760" lon="34.88682740">
        <ele>193.00000</ele>
        <time>2010-01-01T00:56:57Z</time>
      </trkpt>
      <trkpt lat="31.72700820" lon="34.88684890">
        <ele>199.00000</ele>
        <time>2010-01-01T00:57:22Z</time>
      </trkpt>
      <trkpt lat="31.72786600" lon="34.88694010">
        <ele>202.00000</ele>
        <time>2010-01-01T00:57:56Z</time>
      </trkpt>
      <trkpt lat="31.72789330" lon="34.88685420">
        <ele>202.00000</ele>
        <time>2010-01-01T00:57:59Z</time>
      </trkpt>
      <trkpt lat="31.72764690" lon="34.88658600">
        <ele>202.00000</ele>
        <time>2010-01-01T00:58:13Z</time>
      </trkpt>
      <trkpt lat="31.72764000" lon="34.88658000">
        <ele>202.00000</ele>
        <time>2010-01-01T00:58:13Z</time>
      </trkpt>
      <trkpt lat="31.72682000" lon="34.88613000">
        <ele>199.00000</ele>
        <time>2010-01-01T00:58:49Z</time>
      </trkpt>
      <trkpt lat="31.72665000" lon="34.88599000">
        <ele>197.00000</ele>
        <time>2010-01-01T00:58:58Z</time>
      </trkpt>
      <trkpt lat="31.72654000" lon="34.88570000">
        <ele>198.00000</ele>
        <time>2010-01-01T00:59:08Z</time>
      </trkpt>
      <trkpt lat="31.72664000" lon="34.88535000">
        <ele>202.00000</ele>
        <time>2010-01-01T00:59:21Z</time>
      </trkpt>
      <trkpt lat="31.72659000" lon="34.88516000">
        <ele>202.00000</ele>
        <time>2010-01-01T00:59:28Z</time>
      </trkpt>
      <trkpt lat="31.72630000" lon="34.88482000">
        <ele>198.00000</ele>
        <time>2010-01-01T00:59:44Z</time>
      </trkpt>
      <trkpt lat="31.72629000" lon="34.88482000">
        <ele>198.00000</ele>
        <time>2010-01-01T00:59:45Z</time>
      </trkpt>
      <trkpt lat="31.72573000" lon="34.88416000">
        <ele>196.00000</ele>
        <time>2010-01-01T01:00:16Z</time>
      </trkpt>
      <trkpt lat="31.72555000" lon="34.88378000">
        <ele>196.00000</ele>
        <time>2010-01-01T01:00:31Z</time>
      </trkpt>
      <trkpt lat="31.72552000" lon="34.88344000">
        <ele>197.00000</ele>
        <time>2010-01-01T01:00:43Z</time>
      </trkpt>
      <trkpt lat="31.72555000" lon="34.88320000">
        <ele>199.00000</ele>
        <time>2010-01-01T01:00:51Z</time>
      </trkpt>
      <trkpt lat="31.72551000" lon="34.88260000">
        <ele>202.00000</ele>
        <time>2010-01-01T01:01:11Z</time>
      </trkpt>
      <trkpt lat="31.72556000" lon="34.88237000">
        <ele>203.00000</ele>
        <time>2010-01-01T01:01:20Z</time>
      </trkpt>
      <trkpt lat="31.72565000" lon="34.88222000">
        <ele>204.00000</ele>
        <time>2010-01-01T01:01:26Z</time>
      </trkpt>
      <trkpt lat="31.72592000" lon="34.88203000">
        <ele>207.00000</ele>
        <time>2010-01-01T01:01:38Z</time>
      </trkpt>
      <trkpt lat="31.72623000" lon="34.88197000">
        <ele>208.00000</ele>
        <time>2010-01-01T01:01:51Z</time>
      </trkpt>
      <trkpt lat="31.72670000" lon="34.88173000">
        <ele>209.00000</ele>
        <time>2010-01-01T01:02:11Z</time>
      </trkpt>
      <trkpt lat="31.72696000" lon="34.88125000">
        <ele>206.00000</ele>
        <time>2010-01-01T01:02:31Z</time>
      </trkpt>
      <trkpt lat="31.72735000" lon="34.88047000">
        <ele>203.00000</ele>
        <time>2010-01-01T01:03:02Z</time>
      </trkpt>
      <trkpt lat="31.72753000" lon="34.88002000">
        <ele>199.00000</ele>
        <time>2010-01-01T01:03:19Z</time>
      </trkpt>
      <trkpt lat="31.72813000" lon="34.87978000">
        <ele>196.00000</ele>
        <time>2010-01-01T01:03:44Z</time>
      </trkpt>
      <trkpt lat="31.72864000" lon="34.87916000">
        <ele>192.00000</ele>
        <time>2010-01-01T01:04:13Z</time>
      </trkpt>
      <trkpt lat="31.72877000" lon="34.87887000">
        <ele>191.00000</ele>
        <time>2010-01-01T01:04:24Z</time>
      </trkpt>
      <trkpt lat="31.72920000" lon="34.87873000">
        <ele>187.00000</ele>
        <time>2010-01-01T01:04:42Z</time>
      </trkpt>
      <trkpt lat="31.72994000" lon="34.87912000">
        <ele>183.00000</ele>
        <time>2010-01-01T01:05:15Z</time>
      </trkpt>
      <trkpt lat="31.73011000" lon="34.87918000">
        <ele>183.00000</ele>
        <time>2010-01-01T01:05:22Z</time>
      </trkpt>
      <trkpt lat="31.73010000" lon="34.87918000">
        <ele>183.00000</ele>
        <time>2010-01-01T01:05:22Z</time>
      </trkpt>
      <trkpt lat="31.73052000" lon="34.87931000">
        <ele>184.00000</ele>
        <time>2010-01-01T01:05:40Z</time>
      </trkpt>
      <trkpt lat="31.73146000" lon="34.88051000">
        <ele>187.00000</ele>
        <time>2010-01-01T01:06:35Z</time>
      </trkpt>
      <trkpt lat="31.73160000" lon="34.88062000">
        <ele>187.00000</ele>
        <time>2010-01-01T01:06:42Z</time>
      </trkpt>
      <trkpt lat="31.73205000" lon="34.88052000">
        <ele>185.00000</ele>
        <time>2010-01-01T01:07:00Z</time>
      </trkpt>
      <trkpt lat="31.73234000" lon="34.88031000">
        <ele>183.00000</ele>
        <time>2010-01-01T01:07:14Z</time>
      </trkpt>
      <trkpt lat="31.73298000" lon="34.87944000">
        <ele>178.00000</ele>
        <time>2010-01-01T01:07:53Z</time>
      </trkpt>
      <trkpt lat="31.73334000" lon="34.87960000">
        <ele>173.00000</ele>
        <time>2010-01-01T01:08:09Z</time>
      </trkpt>
      <trkpt lat="31.73339000" lon="34.87968000">
        <ele>173.00000</ele>
        <time>2010-01-01T01:08:12Z</time>
      </trkpt>
      <trkpt lat="31.73370000" lon="34.88061000">
        <ele>178.00000</ele>
        <time>2010-01-01T01:08:46Z</time>
      </trkpt>
      <trkpt lat="31.73370000" lon="34.88060000">
        <ele>178.00000</ele>
        <time>2010-01-01T01:08:46Z</time>
      </trkpt>
      <trkpt lat="31.73382000" lon="34.88098000">
        <ele>182.00000</ele>
        <time>2010-01-01T01:09:00Z</time>
      </trkpt>
      <trkpt lat="31.73398000" lon="34.88108000">
        <ele>184.00000</ele>
        <time>2010-01-01T01:09:07Z</time>
      </trkpt>
      <trkpt lat="31.73426000" lon="34.88083000">
        <ele>185.00000</ele>
        <time>2010-01-01T01:09:21Z</time>
      </trkpt>
      <trkpt lat="31.73460000" lon="34.88075000">
        <ele>185.00000</ele>
        <time>2010-01-01T01:09:35Z</time>
      </trkpt>
      <trkpt lat="31.73514000" lon="34.88102000">
        <ele>187.00000</ele>
        <time>2010-01-01T01:09:59Z</time>
      </trkpt>
      <trkpt lat="31.73552000" lon="34.88095000">
        <ele>186.00000</ele>
        <time>2010-01-01T01:10:14Z</time>
      </trkpt>
      <trkpt lat="31.73568000" lon="34.88028000">
        <ele>184.00000</ele>
        <time>2010-01-01T01:10:38Z</time>
      </trkpt>
      <trkpt lat="31.73635000" lon="34.87991000">
        <ele>180.00000</ele>
        <time>2010-01-01T01:11:07Z</time>
      </trkpt>
      <trkpt lat="31.73640000" lon="34.87975000">
        <ele>179.00000</ele>
        <time>2010-01-01T01:11:13Z</time>
      </trkpt>
      <trkpt lat="31.73659000" lon="34.87941000">
        <ele>177.00000</ele>
        <time>2010-01-01T01:11:27Z</time>
      </trkpt>
      <trkpt lat="31.73677000" lon="34.87920000">
        <ele>177.00000</ele>
        <time>2010-01-01T01:11:37Z</time>
      </trkpt>
      <trkpt lat="31.73695000" lon="34.87897000">
        <ele>177.00000</ele>
        <time>2010-01-01T01:11:48Z</time>
      </trkpt>
      <trkpt lat="31.73702000" lon="34.87866000">
        <ele>177.00000</ele>
        <time>2010-01-01T01:11:59Z</time>
      </trkpt>
      <trkpt lat="31.73669000" lon="34.87836000">
        <ele>177.00000</ele>
        <time>2010-01-01T01:12:16Z</time>
      </trkpt>
      <trkpt lat="31.73660000" lon="34.87831000">
        <ele>176.00000</ele>
        <time>2010-01-01T01:12:19Z</time>
      </trkpt>
      <trkpt lat="31.73659000" lon="34.87831000">
        <ele>176.00000</ele>
        <time>2010-01-01T01:12:20Z</time>
      </trkpt>
      <trkpt lat="31.73641000" lon="34.87821000">
        <ele>175.00000</ele>
        <time>2010-01-01T01:12:28Z</time>
      </trkpt>
      <trkpt lat="31.73616000" lon="34.87836000">
        <ele>175.00000</ele>
        <time>2010-01-01T01:12:39Z</time>
      </trkpt>
      <trkpt lat="31.73612000" lon="34.87801000">
        <ele>174.00000</ele>
        <time>2010-01-01T01:12:51Z</time>
      </trkpt>
      <trkpt lat="31.73614000" lon="34.87703000">
        <ele>171.00000</ele>
        <time>2010-01-01T01:13:25Z</time>
      </trkpt>
      <trkpt lat="31.73614000" lon="34.87686000">
        <ele>170.00000</ele>
        <time>2010-01-01T01:13:30Z</time>
      </trkpt>
      <trkpt lat="31.73638000" lon="34.87544000">
        <ele>166.00000</ele>
        <time>2010-01-01T01:14:20Z</time>
      </trkpt>
      <trkpt lat="31.73632000" lon="34.87493000">
        <ele>161.00000</ele>
        <time>2010-01-01T01:14:37Z</time>
      </trkpt>
      <trkpt lat="31.73654000" lon="34.87405000">
        <ele>158.00000</ele>
        <time>2010-01-01T01:15:08Z</time>
      </trkpt>
      <trkpt lat="31.73649000" lon="34.87425000">
        <ele>159.00000</ele>
        <time>2010-01-01T01:15:15Z</time>
      </trkpt>
      <trkpt lat="31.73662000" lon="34.87404000">
        <ele>158.00000</ele>
        <time>2010-01-01T01:15:24Z</time>
      </trkpt>
      <trkpt lat="31.73670000" lon="34.87397000">
        <ele>158.00000</ele>
        <time>2010-01-01T01:15:28Z</time>
      </trkpt>
      <trkpt lat="31.73714000" lon="34.87376000">
        <ele>157.00000</ele>
        <time>2010-01-01T01:15:47Z</time>
      </trkpt>
      <trkpt lat="31.73718000" lon="34.87372000">
        <ele>157.00000</ele>
        <time>2010-01-01T01:15:49Z</time>
      </trkpt>
      <trkpt lat="31.73728000" lon="34.87354000">
        <ele>156.00000</ele>
        <time>2010-01-01T01:15:57Z</time>
      </trkpt>
      <trkpt lat="31.73738000" lon="34.87343000">
        <ele>155.00000</ele>
        <time>2010-01-01T01:16:02Z</time>
      </trkpt>
      <trkpt lat="31.73782000" lon="34.87304000">
        <ele>157.00000</ele>
        <time>2010-01-01T01:16:24Z</time>
      </trkpt>
      <trkpt lat="31.73755000" lon="34.87283000">
        <ele>157.00000</ele>
        <time>2010-01-01T01:16:37Z</time>
      </trkpt>
      <trkpt lat="31.73710000" lon="34.87263000">
        <ele>157.00000</ele>
        <time>2010-01-01T01:16:56Z</time>
      </trkpt>
      <trkpt lat="31.73679000" lon="34.87230000">
        <ele>158.00000</ele>
        <time>2010-01-01T01:17:13Z</time>
      </trkpt>
      <trkpt lat="31.73678000" lon="34.87188000">
        <ele>159.00000</ele>
        <time>2010-01-01T01:17:27Z</time>
      </trkpt>
      <trkpt lat="31.73689000" lon="34.87125000">
        <ele>163.00000</ele>
        <time>2010-01-01T01:17:49Z</time>
      </trkpt>
      <trkpt lat="31.73697000" lon="34.87093000">
        <ele>164.00000</ele>
        <time>2010-01-01T01:18:01Z</time>
      </trkpt>
      <trkpt lat="31.73726000" lon="34.86973000">
        <ele>168.00000</ele>
        <time>2010-01-01T01:18:43Z</time>
      </trkpt>
      <trkpt lat="31.73708000" lon="34.86783000">
        <ele>172.00000</ele>
        <time>2010-01-01T01:19:48Z</time>
      </trkpt>
      <trkpt lat="31.73709000" lon="34.86774000">
        <ele>172.00000</ele>
        <time>2010-01-01T01:19:51Z</time>
      </trkpt>
      <trkpt lat="31.73712000" lon="34.86741000">
        <ele>173.00000</ele>
        <time>2010-01-01T01:20:03Z</time>
      </trkpt>
      <trkpt lat="31.73739000" lon="34.86668000">
        <ele>174.00000</ele>
        <time>2010-01-01T01:20:30Z</time>
      </trkpt>
      <trkpt lat="31.73745000" lon="34.86625000">
        <ele>172.00000</ele>
        <time>2010-01-01T01:20:45Z</time>
      </trkpt>
      <trkpt lat="31.73743000" lon="34.86607000">
        <ele>171.00000</ele>
        <time>2010-01-01T01:20:51Z</time>
      </trkpt>
      <trkpt lat="31.73713000" lon="34.86585000">
        <ele>172.00000</ele>
        <time>2010-01-01T01:21:05Z</time>
      </trkpt>
      <trkpt lat="31.73696000" lon="34.86585000">
        <ele>173.00000</ele>
        <time>2010-01-01T01:21:12Z</time>
      </trkpt>
      <trkpt lat="31.73695000" lon="34.86585000">
        <ele>173.00000</ele>
        <time>2010-01-01T01:21:12Z</time>
      </trkpt>
      <trkpt lat="31.73582000" lon="34.86582000">
        <ele>178.00000</ele>
        <time>2010-01-01T01:21:57Z</time>
      </trkpt>
      <trkpt lat="31.73552000" lon="34.86602000">
        <ele>180.00000</ele>
        <time>2010-01-01T01:22:11Z</time>
      </trkpt>
      <trkpt lat="31.73435000" lon="34.86602000">
        <ele>181.00000</ele>
        <time>2010-01-01T01:22:58Z</time>
      </trkpt>
      <trkpt lat="31.73430000" lon="34.86557000">
        <ele>177.00000</ele>
        <time>2010-01-01T01:23:14Z</time>
      </trkpt>
      <trkpt lat="31.73448000" lon="34.86513000">
        <ele>175.00000</ele>
        <time>2010-01-01T01:23:30Z</time>
      </trkpt>
      <trkpt lat="31.73453000" lon="34.86502000">
        <ele>174.00000</ele>
        <time>2010-01-01T01:23:34Z</time>
      </trkpt>
      <trkpt lat="31.73447000" lon="34.86431000">
        <ele>175.00000</ele>
        <time>2010-01-01T01:23:59Z</time>
      </trkpt>
      <trkpt lat="31.73471000" lon="34.86412000">
        <ele>175.00000</ele>
        <time>2010-01-01T01:24:10Z</time>
      </trkpt>
      <trkpt lat="31.73498000" lon="34.86350000">
        <ele>174.00000</ele>
        <time>2010-01-01T01:24:34Z</time>
      </trkpt>
      <trkpt lat="31.73561000" lon="34.86282000">
        <ele>172.00000</ele>
        <time>2010-01-01T01:25:08Z</time>
      </trkpt>
      <trkpt lat="31.73602000" lon="34.86237000">
        <ele>171.00000</ele>
        <time>2010-01-01T01:25:31Z</time>
      </trkpt>
      <trkpt lat="31.73616000" lon="34.86206000">
        <ele>167.00000</ele>
        <time>2010-01-01T01:25:43Z</time>
      </trkpt>
      <trkpt lat="31.73686000" lon="34.86138000">
        <ele>166.00000</ele>
        <time>2010-01-01T01:26:19Z</time>
      </trkpt>
      <trkpt lat="31.73695000" lon="34.86112000">
        <ele>165.00000</ele>
        <time>2010-01-01T01:26:28Z</time>
      </trkpt>
      <trkpt lat="31.73706000" lon="34.86072000">
        <ele>162.00000</ele>
        <time>2010-01-01T01:26:43Z</time>
      </trkpt>
      <trkpt lat="31.73727000" lon="34.86057000">
        <ele>162.00000</ele>
        <time>2010-01-01T01:26:53Z</time>
      </trkpt>
      <trkpt lat="31.73743000" lon="34.86044000">
        <ele>160.00000</ele>
        <time>2010-01-01T01:27:00Z</time>
      </trkpt>
      <trkpt lat="31.73763000" lon="34.86035000">
        <ele>159.00000</ele>
        <time>2010-01-01T01:27:09Z</time>
      </trkpt>
      <trkpt lat="31.73822000" lon="34.86031000">
        <ele>163.00000</ele>
        <time>2010-01-01T01:27:33Z</time>
      </trkpt>
      <trkpt lat="31.73830000" lon="34.86021000">
        <ele>162.00000</ele>
        <time>2010-01-01T01:27:37Z</time>
      </trkpt>
      <trkpt lat="31.73835000" lon="34.85962000">
        <ele>157.00000</ele>
        <time>2010-01-01T01:27:58Z</time>
      </trkpt>
      <trkpt lat="31.73840000" lon="34.85947000">
        <ele>155.00000</ele>
        <time>2010-01-01T01:28:03Z</time>
      </trkpt>
      <trkpt lat="31.73848000" lon="34.85944000">
        <ele>156.00000</ele>
        <time>2010-01-01T01:28:06Z</time>
      </trkpt>
      <trkpt lat="31.73855000" lon="34.85944000">
        <ele>157.00000</ele>
        <time>2010-01-01T01:28:09Z</time>
      </trkpt>
      <trkpt lat="31.73886000" lon="34.85957000">
        <ele>158.00000</ele>
        <time>2010-01-01T01:28:22Z</time>
      </trkpt>
      <trkpt lat="31.73909000" lon="34.85954000">
        <ele>158.00000</ele>
        <time>2010-01-01T01:28:32Z</time>
      </trkpt>
      <trkpt lat="31.73921000" lon="34.85945000">
        <ele>157.00000</ele>
        <time>2010-01-01T01:28:37Z</time>
      </trkpt>
      <trkpt lat="31.73944000" lon="34.85915000">
        <ele>152.00000</ele>
        <time>2010-01-01T01:28:51Z</time>
      </trkpt>
      <trkpt lat="31.73963000" lon="34.85908000">
        <ele>153.00000</ele>
        <time>2010-01-01T01:28:59Z</time>
      </trkpt>
      <trkpt lat="31.74008000" lon="34.85902000">
        <ele>154.00000</ele>
        <time>2010-01-01T01:29:17Z</time>
      </trkpt>
      <trkpt lat="31.74032000" lon="34.85884000">
        <ele>154.00000</ele>
        <time>2010-01-01T01:29:29Z</time>
      </trkpt>
      <trkpt lat="31.74036000" lon="34.85839000">
        <ele>153.00000</ele>
        <time>2010-01-01T01:29:44Z</time>
      </trkpt>
      <trkpt lat="31.74027000" lon="34.85814000">
        <ele>152.00000</ele>
        <time>2010-01-01T01:29:53Z</time>
      </trkpt>
      <trkpt lat="31.74019000" lon="34.85765000">
        <ele>150.00000</ele>
        <time>2010-01-01T01:30:10Z</time>
      </trkpt>
      <trkpt lat="31.74014000" lon="34.85750000">
        <ele>150.00000</ele>
        <time>2010-01-01T01:30:16Z</time>
      </trkpt>
      <trkpt lat="31.74014000" lon="34.85749000">
        <ele>150.00000</ele>
        <time>2010-01-01T01:30:16Z</time>
      </trkpt>
      <trkpt lat="31.73988000" lon="34.85669000">
        <ele>144.00000</ele>
        <time>2010-01-01T01:30:45Z</time>
      </trkpt>
      <trkpt lat="31.73988000" lon="34.85637000">
        <ele>144.00000</ele>
        <time>2010-01-01T01:30:56Z</time>
      </trkpt>
      <trkpt lat="31.73992000" lon="34.85605000">
        <ele>142.00000</ele>
        <time>2010-01-01T01:31:07Z</time>
      </trkpt>
      <trkpt lat="31.74009000" lon="34.85567000">
        <ele>140.00000</ele>
        <time>2010-01-01T01:31:22Z</time>
      </trkpt>
      <trkpt lat="31.74026000" lon="34.85548000">
        <ele>140.00000</ele>
        <time>2010-01-01T01:31:31Z</time>
      </trkpt>
      <trkpt lat="31.74051000" lon="34.85540000">
        <ele>142.00000</ele>
        <time>2010-01-01T01:31:41Z</time>
      </trkpt>
      <trkpt lat="31.74108000" lon="34.85492000">
        <ele>138.00000</ele>
        <time>2010-01-01T01:32:10Z</time>
      </trkpt>
      <trkpt lat="31.74115000" lon="34.85470000">
        <ele>135.00000</ele>
        <time>2010-01-01T01:32:18Z</time>
      </trkpt>
      <trkpt lat="31.74110000" lon="34.85422000">
        <ele>130.00000</ele>
        <time>2010-01-01T01:32:34Z</time>
      </trkpt>
      <trkpt lat="31.74118000" lon="34.85384000">
        <ele>127.00000</ele>
        <time>2010-01-01T01:32:47Z</time>
      </trkpt>
      <trkpt lat="31.74121000" lon="34.85338000">
        <ele>124.00000</ele>
        <time>2010-01-01T01:33:03Z</time>
      </trkpt>
      <trkpt lat="31.74122000" lon="34.85315000">
        <ele>123.00000</ele>
        <time>2010-01-01T01:33:11Z</time>
      </trkpt>
      <trkpt lat="31.74140000" lon="34.85235000">
        <ele>124.00000</ele>
        <time>2010-01-01T01:33:39Z</time>
      </trkpt>
      <trkpt lat="31.74080000" lon="34.85242000">
        <ele>123.00000</ele>
        <time>2010-01-01T01:34:03Z</time>
      </trkpt>
      <trkpt lat="31.74057000" lon="34.85241000">
        <ele>123.00000</ele>
        <time>2010-01-01T01:34:12Z</time>
      </trkpt>
      <trkpt lat="31.74034000" lon="34.85230000">
        <ele>123.00000</ele>
        <time>2010-01-01T01:34:22Z</time>
      </trkpt>
      <trkpt lat="31.73919000" lon="34.85200000">
        <ele>132.00000</ele>
        <time>2010-01-01T01:35:09Z</time>
      </trkpt>
      <trkpt lat="31.73854000" lon="34.85186000">
        <ele>133.00000</ele>
        <time>2010-01-01T01:35:36Z</time>
      </trkpt>
      <trkpt lat="31.73800000" lon="34.85202000">
        <ele>131.00000</ele>
        <time>2010-01-01T01:35:58Z</time>
      </trkpt>
      <trkpt lat="31.73756000" lon="34.85223000">
        <ele>130.00000</ele>
        <time>2010-01-01T01:36:17Z</time>
      </trkpt>
      <trkpt lat="31.73760000" lon="34.85232000">
        <ele>132.00000</ele>
        <time>2010-01-01T01:36:21Z</time>
      </trkpt>
      <trkpt lat="31.73750000" lon="34.85260000">
        <ele>134.00000</ele>
        <time>2010-01-01T01:36:31Z</time>
      </trkpt>
      <trkpt lat="31.73732000" lon="34.85301000">
        <ele>134.00000</ele>
        <time>2010-01-01T01:36:47Z</time>
      </trkpt>
      <trkpt lat="31.73722000" lon="34.85342000">
        <ele>136.00000</ele>
        <time>2010-01-01T01:37:01Z</time>
      </trkpt>
      <trkpt lat="31.73656000" lon="34.85388000">
        <ele>139.00000</ele>
        <time>2010-01-01T01:37:32Z</time>
      </trkpt>
      <trkpt lat="31.73610000" lon="34.85406000">
        <ele>142.00000</ele>
        <time>2010-01-01T01:37:51Z</time>
      </trkpt>
      <trkpt lat="31.73570000" lon="34.85423000">
        <ele>144.00000</ele>
        <time>2010-01-01T01:38:08Z</time>
      </trkpt>
      <trkpt lat="31.73547000" lon="34.85436000">
        <ele>145.00000</ele>
        <time>2010-01-01T01:38:19Z</time>
      </trkpt>
      <trkpt lat="31.73513000" lon="34.85470000">
        <ele>149.00000</ele>
        <time>2010-01-01T01:38:36Z</time>
      </trkpt>
      <trkpt lat="31.73488000" lon="34.85483000">
        <ele>150.00000</ele>
        <time>2010-01-01T01:38:47Z</time>
      </trkpt>
      <trkpt lat="31.73475000" lon="34.85496000">
        <ele>151.00000</ele>
        <time>2010-01-01T01:38:54Z</time>
      </trkpt>
      <trkpt lat="31.73480000" lon="34.85530000">
        <ele>155.00000</ele>
        <time>2010-01-01T01:39:06Z</time>
      </trkpt>
      <trkpt lat="31.73502000" lon="34.85599000">
        <ele>163.00000</ele>
        <time>2010-01-01T01:39:31Z</time>
      </trkpt>
      <trkpt lat="31.73504000" lon="34.85615000">
        <ele>164.00000</ele>
        <time>2010-01-01T01:39:37Z</time>
      </trkpt>
      <trkpt lat="31.73504000" lon="34.85614000">
        <ele>164.00000</ele>
        <time>2010-01-01T01:39:37Z</time>
      </trkpt>
      <trkpt lat="31.73508000" lon="34.85660000">
        <ele>168.00000</ele>
        <time>2010-01-01T01:39:53Z</time>
      </trkpt>
      <trkpt lat="31.73501000" lon="34.85681000">
        <ele>169.00000</ele>
        <time>2010-01-01T01:40:00Z</time>
      </trkpt>
      <trkpt lat="31.73490000" lon="34.85691000">
        <ele>169.00000</ele>
        <time>2010-01-01T01:40:06Z</time>
      </trkpt>
      <trkpt lat="31.73483000" lon="34.85714000">
        <ele>171.00000</ele>
        <time>2010-01-01T01:40:14Z</time>
      </trkpt>
      <trkpt lat="31.73468000" lon="34.85774000">
        <ele>174.00000</ele>
        <time>2010-01-01T01:40:36Z</time>
      </trkpt>
      <trkpt lat="31.73450000" lon="34.85813000">
        <ele>177.00000</ele>
        <time>2010-01-01T01:40:51Z</time>
      </trkpt>
      <trkpt lat="31.73428000" lon="34.85831000">
        <ele>179.00000</ele>
        <time>2010-01-01T01:41:01Z</time>
      </trkpt>
      <trkpt lat="31.73418000" lon="34.85848000">
        <ele>180.00000</ele>
        <time>2010-01-01T01:41:08Z</time>
      </trkpt>
      <trkpt lat="31.73382930" lon="34.85818140">
        <ele>178.00000</ele>
        <time>2010-01-01T01:41:26Z</time>
      </trkpt>
      <trkpt lat="31.73348710" lon="34.85782740">
        <ele>177.00000</ele>
        <time>2010-01-01T01:41:44Z</time>
      </trkpt>
      <trkpt lat="31.73320420" lon="34.85781130">
        <ele>178.00000</ele>
        <time>2010-01-01T01:41:55Z</time>
      </trkpt>
      <trkpt lat="31.73283010" lon="34.85790250">
        <ele>181.00000</ele>
        <time>2010-01-01T01:42:11Z</time>
      </trkpt>
      <trkpt lat="31.73248330" lon="34.85788100">
        <ele>181.00000</ele>
        <time>2010-01-01T01:42:24Z</time>
      </trkpt>
      <trkpt lat="31.73189020" lon="34.85776300">
        <ele>185.00000</ele>
        <time>2010-01-01T01:42:49Z</time>
      </trkpt>
      <trkpt lat="31.73167120" lon="34.85769330">
        <ele>187.00000</ele>
        <time>2010-01-01T01:42:58Z</time>
      </trkpt>
      <trkpt lat="31.73148410" lon="34.85766640">
        <ele>188.00000</ele>
        <time>2010-01-01T01:43:05Z</time>
      </trkpt>
      <trkpt lat="31.73131530" lon="34.85776300">
        <ele>189.00000</ele>
        <time>2010-01-01T01:43:13Z</time>
      </trkpt>
      <trkpt lat="31.73120580" lon="34.85799900">
        <ele>187.00000</ele>
        <time>2010-01-01T01:43:22Z</time>
      </trkpt>
      <trkpt lat="31.73115560" lon="34.85844430">
        <ele>185.00000</ele>
        <time>2010-01-01T01:43:37Z</time>
      </trkpt>
      <trkpt lat="31.73097310" lon="34.85875540">
        <ele>183.00000</ele>
        <time>2010-01-01T01:43:50Z</time>
      </trkpt>
      <trkpt lat="31.73061270" lon="34.85891100">
        <ele>182.00000</ele>
        <time>2010-01-01T01:44:05Z</time>
      </trkpt>
      <trkpt lat="31.73017920" lon="34.85863740">
        <ele>182.00000</ele>
        <time>2010-01-01T01:44:25Z</time>
      </trkpt>
      <trkpt lat="31.73018000" lon="34.85863000">
        <ele>182.00000</ele>
        <time>2010-01-01T01:44:25Z</time>
      </trkpt>
      <trkpt lat="31.72978000" lon="34.85841000">
        <ele>184.00000</ele>
        <time>2010-01-01T01:44:43Z</time>
      </trkpt>
      <trkpt lat="31.72959000" lon="34.85836000">
        <ele>185.00000</ele>
        <time>2010-01-01T01:44:51Z</time>
      </trkpt>
      <trkpt lat="31.72886000" lon="34.85837000">
        <ele>184.00000</ele>
        <time>2010-01-01T01:45:20Z</time>
      </trkpt>
      <trkpt lat="31.72827000" lon="34.85841000">
        <ele>185.00000</ele>
        <time>2010-01-01T01:45:44Z</time>
      </trkpt>
      <trkpt lat="31.72822000" lon="34.85840000">
        <ele>185.00000</ele>
        <time>2010-01-01T01:45:46Z</time>
      </trkpt>
      <trkpt lat="31.72821000" lon="34.85840000">
        <ele>185.00000</ele>
        <time>2010-01-01T01:45:46Z</time>
      </trkpt>
      <trkpt lat="31.72775000" lon="34.85828000">
        <ele>183.00000</ele>
        <time>2010-01-01T01:46:05Z</time>
      </trkpt>
      <trkpt lat="31.72737000" lon="34.85822000">
        <ele>182.00000</ele>
        <time>2010-01-01T01:46:20Z</time>
      </trkpt>
      <trkpt lat="31.72719000" lon="34.85810000">
        <ele>182.00000</ele>
        <time>2010-01-01T01:46:29Z</time>
      </trkpt>
      <trkpt lat="31.72706000" lon="34.85797000">
        <ele>181.00000</ele>
        <time>2010-01-01T01:46:35Z</time>
      </trkpt>
      <trkpt lat="31.72705000" lon="34.85797000">
        <ele>181.00000</ele>
        <time>2010-01-01T01:46:36Z</time>
      </trkpt>
      <trkpt lat="31.72691000" lon="34.85784000">
        <ele>180.00000</ele>
        <time>2010-01-01T01:46:43Z</time>
      </trkpt>
      <trkpt lat="31.72660000" lon="34.85767000">
        <ele>178.00000</ele>
        <time>2010-01-01T01:46:57Z</time>
      </trkpt>
      <trkpt lat="31.72633000" lon="34.85746000">
        <ele>177.00000</ele>
        <time>2010-01-01T01:47:10Z</time>
      </trkpt>
      <trkpt lat="31.72552000" lon="34.85641000">
        <ele>169.00000</ele>
        <time>2010-01-01T01:47:58Z</time>
      </trkpt>
      <trkpt lat="31.72531000" lon="34.85615000">
        <ele>168.00000</ele>
        <time>2010-01-01T01:48:10Z</time>
      </trkpt>
      <trkpt lat="31.72517000" lon="34.85606000">
        <ele>167.00000</ele>
        <time>2010-01-01T01:48:17Z</time>
      </trkpt>
      <trkpt lat="31.72511000" lon="34.85607000">
        <ele>167.00000</ele>
        <time>2010-01-01T01:48:19Z</time>
      </trkpt>
      <trkpt lat="31.72485000" lon="34.85650000">
        <ele>171.00000</ele>
        <time>2010-01-01T01:48:37Z</time>
      </trkpt>
      <trkpt lat="31.72469000" lon="34.85676000">
        <ele>174.00000</ele>
        <time>2010-01-01T01:48:48Z</time>
      </trkpt>
      <trkpt lat="31.72449000" lon="34.85700000">
        <ele>177.00000</ele>
        <time>2010-01-01T01:48:59Z</time>
      </trkpt>
      <trkpt lat="31.72436000" lon="34.85710000">
        <ele>178.00000</ele>
        <time>2010-01-01T01:49:05Z</time>
      </trkpt>
      <trkpt lat="31.72400000" lon="34.85727000">
        <ele>180.00000</ele>
        <time>2010-01-01T01:49:21Z</time>
      </trkpt>
      <trkpt lat="31.72362000" lon="34.85755000">
        <ele>182.00000</ele>
        <time>2010-01-01T01:49:39Z</time>
      </trkpt>
      <trkpt lat="31.72347000" lon="34.85768000">
        <ele>182.00000</ele>
        <time>2010-01-01T01:49:46Z</time>
      </trkpt>
      <trkpt lat="31.72331000" lon="34.85786000">
        <ele>181.00000</ele>
        <time>2010-01-01T01:49:55Z</time>
      </trkpt>
      <trkpt lat="31.72323000" lon="34.85805000">
        <ele>180.00000</ele>
        <time>2010-01-01T01:50:03Z</time>
      </trkpt>
      <trkpt lat="31.72311000" lon="34.85820000">
        <ele>179.00000</ele>
        <time>2010-01-01T01:50:10Z</time>
      </trkpt>
      <trkpt lat="31.72304000" lon="34.85830000">
        <ele>178.00000</ele>
        <time>2010-01-01T01:50:14Z</time>
      </trkpt>
      <trkpt lat="31.72274000" lon="34.85849000">
        <ele>175.00000</ele>
        <time>2010-01-01T01:50:28Z</time>
      </trkpt>
      <trkpt lat="31.72235000" lon="34.85909000">
        <ele>172.00000</ele>
        <time>2010-01-01T01:50:53Z</time>
      </trkpt>
      <trkpt lat="31.72219000" lon="34.85926000">
        <ele>171.00000</ele>
        <time>2010-01-01T01:51:02Z</time>
      </trkpt>
      <trkpt lat="31.72212000" lon="34.85935000">
        <ele>171.00000</ele>
        <time>2010-01-01T01:51:06Z</time>
      </trkpt>
      <trkpt lat="31.72185000" lon="34.85958000">
        <ele>168.00000</ele>
        <time>2010-01-01T01:51:19Z</time>
      </trkpt>
      <trkpt lat="31.72177000" lon="34.85970000">
        <ele>167.00000</ele>
        <time>2010-01-01T01:51:25Z</time>
      </trkpt>
      <trkpt lat="31.72163000" lon="34.85997000">
        <ele>165.00000</ele>
        <time>2010-01-01T01:51:35Z</time>
      </trkpt>
      <trkpt lat="31.72158000" lon="34.86013000">
        <ele>164.00000</ele>
        <time>2010-01-01T01:51:41Z</time>
      </trkpt>
      <trkpt lat="31.72068000" lon="34.85973000">
        <ele>163.00000</ele>
        <time>2010-01-01T01:52:20Z</time>
      </trkpt>
      <trkpt lat="31.71975000" lon="34.85938000">
        <ele>161.00000</ele>
        <time>2010-01-01T01:52:59Z</time>
      </trkpt>
      <trkpt lat="31.71946000" lon="34.85923000">
        <ele>157.00000</ele>
        <time>2010-01-01T01:53:11Z</time>
      </trkpt>
      <trkpt lat="31.71948000" lon="34.85915000">
        <ele>157.00000</ele>
        <time>2010-01-01T01:53:14Z</time>
      </trkpt>
      <trkpt lat="31.71946000" lon="34.85883000">
        <ele>159.00000</ele>
        <time>2010-01-01T01:53:25Z</time>
      </trkpt>
      <trkpt lat="31.71926000" lon="34.85861000">
        <ele>159.00000</ele>
        <time>2010-01-01T01:53:36Z</time>
      </trkpt>
      <trkpt lat="31.71925000" lon="34.85861000">
        <ele>159.00000</ele>
        <time>2010-01-01T01:53:37Z</time>
      </trkpt>
      <trkpt lat="31.71918000" lon="34.85852000">
        <ele>160.00000</ele>
        <time>2010-01-01T01:53:41Z</time>
      </trkpt>
      <trkpt lat="31.71900000" lon="34.85839000">
        <ele>161.00000</ele>
        <time>2010-01-01T01:53:49Z</time>
      </trkpt>
      <trkpt lat="31.71842000" lon="34.85849000">
        <ele>155.00000</ele>
        <time>2010-01-01T01:54:13Z</time>
      </trkpt>
      <trkpt lat="31.71815000" lon="34.85843000">
        <ele>154.00000</ele>
        <time>2010-01-01T01:54:24Z</time>
      </trkpt>
      <trkpt lat="31.71800000" lon="34.85835000">
        <ele>155.00000</ele>
        <time>2010-01-01T01:54:30Z</time>
      </trkpt>
      <trkpt lat="31.71799000" lon="34.85835000">
        <ele>155.00000</ele>
        <time>2010-01-01T01:54:31Z</time>
      </trkpt>
      <trkpt lat="31.71771000" lon="34.85820000">
        <ele>155.00000</ele>
        <time>2010-01-01T01:54:43Z</time>
      </trkpt>
      <trkpt lat="31.71747000" lon="34.85805000">
        <ele>153.00000</ele>
        <time>2010-01-01T01:54:54Z</time>
      </trkpt>
      <trkpt lat="31.71691000" lon="34.85783000">
        <ele>153.00000</ele>
        <time>2010-01-01T01:55:17Z</time>
      </trkpt>
      <trkpt lat="31.71691000" lon="34.85782000">
        <ele>153.00000</ele>
        <time>2010-01-01T01:55:18Z</time>
      </trkpt>
      <trkpt lat="31.71573000" lon="34.85742000">
        <ele>149.00000</ele>
        <time>2010-01-01T01:56:07Z</time>
      </trkpt>
      <trkpt lat="31.71489000" lon="34.85694000">
        <ele>148.00000</ele>
        <time>2010-01-01T01:56:44Z</time>
      </trkpt>
      <trkpt lat="31.71487000" lon="34.85651000">
        <ele>153.00000</ele>
        <time>2010-01-01T01:56:59Z</time>
      </trkpt>
      <trkpt lat="31.71477000" lon="34.85613000">
        <ele>153.00000</ele>
        <time>2010-01-01T01:57:13Z</time>
      </trkpt>
      <trkpt lat="31.71435000" lon="34.85517000">
        <ele>147.00000</ele>
        <time>2010-01-01T01:57:49Z</time>
      </trkpt>
      <trkpt lat="31.71407000" lon="34.85445000">
        <ele>146.00000</ele>
        <time>2010-01-01T01:58:16Z</time>
      </trkpt>
      <trkpt lat="31.71366000" lon="34.85364000">
        <ele>147.00000</ele>
        <time>2010-01-01T01:58:48Z</time>
      </trkpt>
      <trkpt lat="31.71365000" lon="34.85364000">
        <ele>147.00000</ele>
        <time>2010-01-01T01:58:49Z</time>
      </trkpt>
      <trkpt lat="31.71342000" lon="34.85331000">
        <ele>145.00000</ele>
        <time>2010-01-01T01:59:03Z</time>
      </trkpt>
      <trkpt lat="31.71201000" lon="34.85173000">
        <ele>144.00000</ele>
        <time>2010-01-01T02:00:21Z</time>
      </trkpt>
      <trkpt lat="31.71193000" lon="34.85157000">
        <ele>143.00000</ele>
        <time>2010-01-01T02:00:28Z</time>
      </trkpt>
      <trkpt lat="31.71179000" lon="34.85112000">
        <ele>142.00000</ele>
        <time>2010-01-01T02:00:44Z</time>
      </trkpt>
      <trkpt lat="31.71141000" lon="34.85115000">
        <ele>139.00000</ele>
        <time>2010-01-01T02:00:59Z</time>
      </trkpt>
      <trkpt lat="31.71128000" lon="34.85114000">
        <ele>137.00000</ele>
        <time>2010-01-01T02:01:04Z</time>
      </trkpt>
      <trkpt lat="31.71127000" lon="34.85114000">
        <ele>137.00000</ele>
        <time>2010-01-01T02:01:05Z</time>
      </trkpt>
      <trkpt lat="31.71017000" lon="34.85100000">
        <ele>130.00000</ele>
        <time>2010-01-01T02:01:49Z</time>
      </trkpt>
      <trkpt lat="31.70984000" lon="34.85094000">
        <ele>129.00000</ele>
        <time>2010-01-01T02:02:02Z</time>
      </trkpt>
      <trkpt lat="31.70922000" lon="34.85072000">
        <ele>129.00000</ele>
        <time>2010-01-01T02:02:28Z</time>
      </trkpt>
      <trkpt lat="31.70890000" lon="34.85066000">
        <ele>127.00000</ele>
        <time>2010-01-01T02:02:41Z</time>
      </trkpt>
      <trkpt lat="31.70889000" lon="34.85066000">
        <ele>127.00000</ele>
        <time>2010-01-01T02:02:42Z</time>
      </trkpt>
      <trkpt lat="31.70855000" lon="34.85060000">
        <ele>127.00000</ele>
        <time>2010-01-01T02:02:56Z</time>
      </trkpt>
      <trkpt lat="31.70819000" lon="34.85044000">
        <ele>128.00000</ele>
        <time>2010-01-01T02:03:11Z</time>
      </trkpt>
      <trkpt lat="31.70808000" lon="34.85027000">
        <ele>128.00000</ele>
        <time>2010-01-01T02:03:18Z</time>
      </trkpt>
      <trkpt lat="31.70783000" lon="34.84965000">
        <ele>128.00000</ele>
        <time>2010-01-01T02:03:42Z</time>
      </trkpt>
      <trkpt lat="31.70751000" lon="34.84908000">
        <ele>129.00000</ele>
        <time>2010-01-01T02:04:05Z</time>
      </trkpt>
      <trkpt lat="31.70730000" lon="34.84859000">
        <ele>126.00000</ele>
        <time>2010-01-01T02:04:24Z</time>
      </trkpt>
      <trkpt lat="31.70708000" lon="34.84820000">
        <ele>125.00000</ele>
        <time>2010-01-01T02:04:39Z</time>
      </trkpt>
      <trkpt lat="31.70671000" lon="34.84774000">
        <ele>125.00000</ele>
        <time>2010-01-01T02:05:01Z</time>
      </trkpt>
      <trkpt lat="31.70655000" lon="34.84750000">
        <ele>125.00000</ele>
        <time>2010-01-01T02:05:11Z</time>
      </trkpt>
      <trkpt lat="31.70655000" lon="34.84749000">
        <ele>125.00000</ele>
        <time>2010-01-01T02:05:12Z</time>
      </trkpt>
      <trkpt lat="31.70624000" lon="34.84687000">
        <ele>126.00000</ele>
        <time>2010-01-01T02:05:36Z</time>
      </trkpt>
      <trkpt lat="31.70611000" lon="34.84666000">
        <ele>126.00000</ele>
        <time>2010-01-01T02:05:45Z</time>
      </trkpt>
      <trkpt lat="31.70607000" lon="34.84662000">
        <ele>126.00000</ele>
        <time>2010-01-01T02:05:47Z</time>
      </trkpt>
      <trkpt lat="31.70598000" lon="34.84663000">
        <ele>126.00000</ele>
        <time>2010-01-01T02:05:51Z</time>
      </trkpt>
      <trkpt lat="31.70589000" lon="34.84670000">
        <ele>127.00000</ele>
        <time>2010-01-01T02:05:55Z</time>
      </trkpt>
      <trkpt lat="31.70583000" lon="34.84680000">
        <ele>128.00000</ele>
        <time>2010-01-01T02:05:59Z</time>
      </trkpt>
      <trkpt lat="31.70583000" lon="34.84693000">
        <ele>128.00000</ele>
        <time>2010-01-01T02:06:04Z</time>
      </trkpt>
      <trkpt lat="31.70584000" lon="34.84701000">
        <ele>128.00000</ele>
        <time>2010-01-01T02:06:06Z</time>
      </trkpt>
      <trkpt lat="31.70584000" lon="34.84700000">
        <ele>128.00000</ele>
        <time>2010-01-01T02:06:07Z</time>
      </trkpt>
      <trkpt lat="31.70591000" lon="34.84726000">
        <ele>129.00000</ele>
        <time>2010-01-01T02:06:16Z</time>
      </trkpt>
      <trkpt lat="31.70612000" lon="34.84767000">
        <ele>130.00000</ele>
        <time>2010-01-01T02:06:32Z</time>
      </trkpt>
      <trkpt lat="31.70608000" lon="34.84786000">
        <ele>131.00000</ele>
        <time>2010-01-01T02:06:39Z</time>
      </trkpt>
      <trkpt lat="31.70607000" lon="34.84804000">
        <ele>131.00000</ele>
        <time>2010-01-01T02:06:45Z</time>
      </trkpt>
      <trkpt lat="31.70576000" lon="34.84809000">
        <ele>134.00000</ele>
        <time>2010-01-01T02:06:58Z</time>
      </trkpt>
      <trkpt lat="31.70530000" lon="34.84815000">
        <ele>136.00000</ele>
        <time>2010-01-01T02:07:16Z</time>
      </trkpt>
      <trkpt lat="31.70524000" lon="34.84813000">
        <ele>137.00000</ele>
        <time>2010-01-01T02:07:19Z</time>
      </trkpt>
      <trkpt lat="31.70516000" lon="34.84803000">
        <ele>138.00000</ele>
        <time>2010-01-01T02:07:23Z</time>
      </trkpt>
      <trkpt lat="31.70507000" lon="34.84785000">
        <ele>138.00000</ele>
        <time>2010-01-01T02:07:31Z</time>
      </trkpt>
      <trkpt lat="31.70503000" lon="34.84774000">
        <ele>138.00000</ele>
        <time>2010-01-01T02:07:35Z</time>
      </trkpt>
      <trkpt lat="31.70498000" lon="34.84735000">
        <ele>138.00000</ele>
        <time>2010-01-01T02:07:48Z</time>
      </trkpt>
      <trkpt lat="31.70495000" lon="34.84728000">
        <ele>138.00000</ele>
        <time>2010-01-01T02:07:51Z</time>
      </trkpt>
      <trkpt lat="31.70474000" lon="34.84702000">
        <ele>141.00000</ele>
        <time>2010-01-01T02:08:03Z</time>
      </trkpt>
      <trkpt lat="31.70465000" lon="34.84699000">
        <ele>143.00000</ele>
        <time>2010-01-01T02:08:07Z</time>
      </trkpt>
      <trkpt lat="31.70447000" lon="34.84703000">
        <ele>147.00000</ele>
        <time>2010-01-01T02:08:14Z</time>
      </trkpt>
      <trkpt lat="31.70440000" lon="34.84702000">
        <ele>149.00000</ele>
        <time>2010-01-01T02:08:17Z</time>
      </trkpt>
      <trkpt lat="31.70435000" lon="34.84693000">
        <ele>150.00000</ele>
        <time>2010-01-01T02:08:20Z</time>
      </trkpt>
      <trkpt lat="31.70435000" lon="34.84685000">
        <ele>150.00000</ele>
        <time>2010-01-01T02:08:23Z</time>
      </trkpt>
      <trkpt lat="31.70435000" lon="34.84684000">
        <ele>150.00000</ele>
        <time>2010-01-01T02:08:24Z</time>
      </trkpt>
      <trkpt lat="31.70434000" lon="34.84656000">
        <ele>147.00000</ele>
        <time>2010-01-01T02:08:33Z</time>
      </trkpt>
      <trkpt lat="31.70432000" lon="34.84647000">
        <ele>147.00000</ele>
        <time>2010-01-01T02:08:36Z</time>
      </trkpt>
      <trkpt lat="31.70422000" lon="34.84623000">
        <ele>146.00000</ele>
        <time>2010-01-01T02:08:45Z</time>
      </trkpt>
      <trkpt lat="31.70417000" lon="34.84612000">
        <ele>146.00000</ele>
        <time>2010-01-01T02:08:50Z</time>
      </trkpt>
      <trkpt lat="31.70390000" lon="34.84580000">
        <ele>149.00000</ele>
        <time>2010-01-01T02:09:05Z</time>
      </trkpt>
      <trkpt lat="31.70378000" lon="34.84560000">
        <ele>149.00000</ele>
        <time>2010-01-01T02:09:13Z</time>
      </trkpt>
      <trkpt lat="31.70377000" lon="34.84560000">
        <ele>149.00000</ele>
        <time>2010-01-01T02:09:14Z</time>
      </trkpt>
      <trkpt lat="31.70371000" lon="34.84555000">
        <ele>149.00000</ele>
        <time>2010-01-01T02:09:17Z</time>
      </trkpt>
      <trkpt lat="31.70364000" lon="34.84554000">
        <ele>151.00000</ele>
        <time>2010-01-01T02:09:19Z</time>
      </trkpt>
      <trkpt lat="31.70350000" lon="34.84554000">
        <ele>152.00000</ele>
        <time>2010-01-01T02:09:25Z</time>
      </trkpt>
      <trkpt lat="31.70343000" lon="34.84552000">
        <ele>152.00000</ele>
        <time>2010-01-01T02:09:28Z</time>
      </trkpt>
      <trkpt lat="31.70338000" lon="34.84549000">
        <ele>152.00000</ele>
        <time>2010-01-01T02:09:30Z</time>
      </trkpt>
      <trkpt lat="31.70331000" lon="34.84541000">
        <ele>151.00000</ele>
        <time>2010-01-01T02:09:34Z</time>
      </trkpt>
      <trkpt lat="31.70324000" lon="34.84527000">
        <ele>148.00000</ele>
        <time>2010-01-01T02:09:40Z</time>
      </trkpt>
      <trkpt lat="31.70315000" lon="34.84520000">
        <ele>148.00000</ele>
        <time>2010-01-01T02:09:44Z</time>
      </trkpt>
      <trkpt lat="31.70296000" lon="34.84514000">
        <ele>148.00000</ele>
        <time>2010-01-01T02:09:52Z</time>
      </trkpt>
      <trkpt lat="31.70271000" lon="34.84516000">
        <ele>151.00000</ele>
        <time>2010-01-01T02:10:02Z</time>
      </trkpt>
      <trkpt lat="31.70258000" lon="34.84514000">
        <ele>153.00000</ele>
        <time>2010-01-01T02:10:07Z</time>
      </trkpt>
      <trkpt lat="31.70249000" lon="34.84508000">
        <ele>155.00000</ele>
        <time>2010-01-01T02:10:11Z</time>
      </trkpt>
      <trkpt lat="31.70244000" lon="34.84500000">
        <ele>155.00000</ele>
        <time>2010-01-01T02:10:15Z</time>
      </trkpt>
      <trkpt lat="31.70243000" lon="34.84496000">
        <ele>155.00000</ele>
        <time>2010-01-01T02:10:16Z</time>
      </trkpt>
      <trkpt lat="31.70243000" lon="34.84495000">
        <ele>155.00000</ele>
        <time>2010-01-01T02:10:16Z</time>
      </trkpt>
      <trkpt lat="31.70238000" lon="34.84472000">
        <ele>154.00000</ele>
        <time>2010-01-01T02:10:24Z</time>
      </trkpt>
      <trkpt lat="31.70219000" lon="34.84455000">
        <ele>158.00000</ele>
        <time>2010-01-01T02:10:34Z</time>
      </trkpt>
      <trkpt lat="31.70209000" lon="34.84438000">
        <ele>159.00000</ele>
        <time>2010-01-01T02:10:41Z</time>
      </trkpt>
      <trkpt lat="31.70200000" lon="34.84432000">
        <ele>161.00000</ele>
        <time>2010-01-01T02:10:45Z</time>
      </trkpt>
      <trkpt lat="31.70190000" lon="34.84430000">
        <ele>162.00000</ele>
        <time>2010-01-01T02:10:49Z</time>
      </trkpt>
      <trkpt lat="31.70178000" lon="34.84429000">
        <ele>163.00000</ele>
        <time>2010-01-01T02:10:54Z</time>
      </trkpt>
      <trkpt lat="31.70159000" lon="34.84436000">
        <ele>166.00000</ele>
        <time>2010-01-01T02:11:02Z</time>
      </trkpt>
      <trkpt lat="31.70137000" lon="34.84441000">
        <ele>167.00000</ele>
        <time>2010-01-01T02:11:11Z</time>
      </trkpt>
      <trkpt lat="31.70129000" lon="34.84444000">
        <ele>167.00000</ele>
        <time>2010-01-01T02:11:14Z</time>
      </trkpt>
      <trkpt lat="31.70110000" lon="34.84464000">
        <ele>170.00000</ele>
        <time>2010-01-01T02:11:25Z</time>
      </trkpt>
      <trkpt lat="31.70090000" lon="34.84474000">
        <ele>172.00000</ele>
        <time>2010-01-01T02:11:33Z</time>
      </trkpt>
      <trkpt lat="31.70074000" lon="34.84479000">
        <ele>174.00000</ele>
        <time>2010-01-01T02:11:40Z</time>
      </trkpt>
      <trkpt lat="31.70046000" lon="34.84481000">
        <ele>176.00000</ele>
        <time>2010-01-01T02:11:51Z</time>
      </trkpt>
      <trkpt lat="31.70054000" lon="34.84507000">
        <ele>179.00000</ele>
        <time>2010-01-01T02:12:01Z</time>
      </trkpt>
      <trkpt lat="31.70072000" lon="34.84544000">
        <ele>181.00000</ele>
        <time>2010-01-01T02:12:15Z</time>
      </trkpt>
      <trkpt lat="31.70080000" lon="34.84553000">
        <ele>182.00000</ele>
        <time>2010-01-01T02:12:20Z</time>
      </trkpt>
      <trkpt lat="31.70112000" lon="34.84580000">
        <ele>181.00000</ele>
        <time>2010-01-01T02:12:35Z</time>
      </trkpt>
      <trkpt lat="31.70116000" lon="34.84586000">
        <ele>182.00000</ele>
        <time>2010-01-01T02:12:38Z</time>
      </trkpt>
      <trkpt lat="31.70116000" lon="34.84585000">
        <ele>182.00000</ele>
        <time>2010-01-01T02:12:38Z</time>
      </trkpt>
      <trkpt lat="31.70131000" lon="34.84605000">
        <ele>183.00000</ele>
        <time>2010-01-01T02:12:47Z</time>
      </trkpt>
      <trkpt lat="31.70138000" lon="34.84610000">
        <ele>183.00000</ele>
        <time>2010-01-01T02:12:51Z</time>
      </trkpt>
      <trkpt lat="31.70156000" lon="34.84611000">
        <ele>184.00000</ele>
        <time>2010-01-01T02:12:58Z</time>
      </trkpt>
      <trkpt lat="31.70173000" lon="34.84617000">
        <ele>184.00000</ele>
        <time>2010-01-01T02:13:05Z</time>
      </trkpt>
      <trkpt lat="31.70179000" lon="34.84621000">
        <ele>184.00000</ele>
        <time>2010-01-01T02:13:08Z</time>
      </trkpt>
      <trkpt lat="31.70180000" lon="34.84633000">
        <ele>187.00000</ele>
        <time>2010-01-01T02:13:12Z</time>
      </trkpt>
      <trkpt lat="31.70202000" lon="34.84650000">
        <ele>190.00000</ele>
        <time>2010-01-01T02:13:22Z</time>
      </trkpt>
      <trkpt lat="31.70214000" lon="34.84660000">
        <ele>193.00000</ele>
        <time>2010-01-01T02:13:28Z</time>
      </trkpt>
      <trkpt lat="31.70221000" lon="34.84664000">
        <ele>195.00000</ele>
        <time>2010-01-01T02:13:31Z</time>
      </trkpt>
      <trkpt lat="31.70221000" lon="34.84663000">
        <ele>194.00000</ele>
        <time>2010-01-01T02:13:32Z</time>
      </trkpt>
      <trkpt lat="31.70224000" lon="34.84665000">
        <ele>195.00000</ele>
        <time>2010-01-01T02:13:33Z</time>
      </trkpt>
      <trkpt lat="31.70228000" lon="34.84670000">
        <ele>196.00000</ele>
        <time>2010-01-01T02:13:35Z</time>
      </trkpt>
      <trkpt lat="31.70246000" lon="34.84671000">
        <ele>195.00000</ele>
        <time>2010-01-01T02:13:43Z</time>
      </trkpt>
      <trkpt lat="31.70253000" lon="34.84675000">
        <ele>195.00000</ele>
        <time>2010-01-01T02:13:46Z</time>
      </trkpt>
      <trkpt lat="31.70260000" lon="34.84707000">
        <ele>200.00000</ele>
        <time>2010-01-01T02:13:57Z</time>
      </trkpt>
      <trkpt lat="31.70258000" lon="34.84720000">
        <ele>202.00000</ele>
        <time>2010-01-01T02:14:01Z</time>
      </trkpt>
      <trkpt lat="31.70256000" lon="34.84723000">
        <ele>203.00000</ele>
        <time>2010-01-01T02:14:03Z</time>
      </trkpt>
      <trkpt lat="31.70248000" lon="34.84730000">
        <ele>204.00000</ele>
        <time>2010-01-01T02:14:07Z</time>
      </trkpt>
      <trkpt lat="31.70238000" lon="34.84730000">
        <ele>206.00000</ele>
        <time>2010-01-01T02:14:11Z</time>
      </trkpt>
      <trkpt lat="31.70231000" lon="34.84729000">
        <ele>207.00000</ele>
        <time>2010-01-01T02:14:14Z</time>
      </trkpt>
      <trkpt lat="31.70204000" lon="34.84736000">
        <ele>209.00000</ele>
        <time>2010-01-01T02:14:25Z</time>
      </trkpt>
      <trkpt lat="31.70198000" lon="34.84757000">
        <ele>210.00000</ele>
        <time>2010-01-01T02:14:32Z</time>
      </trkpt>
      <trkpt lat="31.70200000" lon="34.84773000">
        <ele>208.00000</ele>
        <time>2010-01-01T02:14:38Z</time>
      </trkpt>
      <trkpt lat="31.70200000" lon="34.84772000">
        <ele>208.00000</ele>
        <time>2010-01-01T02:14:38Z</time>
      </trkpt>
      <trkpt lat="31.70206000" lon="34.84796000">
        <ele>204.00000</ele>
        <time>2010-01-01T02:14:47Z</time>
      </trkpt>
      <trkpt lat="31.70212000" lon="34.84803000">
        <ele>203.00000</ele>
        <time>2010-01-01T02:14:50Z</time>
      </trkpt>
      <trkpt lat="31.70224000" lon="34.84809000">
        <ele>202.00000</ele>
        <time>2010-01-01T02:14:55Z</time>
      </trkpt>
      <trkpt lat="31.70230000" lon="34.84809000">
        <ele>202.00000</ele>
        <time>2010-01-01T02:14:58Z</time>
      </trkpt>
      <trkpt lat="31.70237000" lon="34.84806000">
        <ele>203.00000</ele>
        <time>2010-01-01T02:15:01Z</time>
      </trkpt>
      <trkpt lat="31.70243000" lon="34.84800000">
        <ele>204.00000</ele>
        <time>2010-01-01T02:15:04Z</time>
      </trkpt>
      <trkpt lat="31.70250000" lon="34.84788000">
        <ele>206.00000</ele>
        <time>2010-01-01T02:15:09Z</time>
      </trkpt>
      <trkpt lat="31.70264000" lon="34.84780000">
        <ele>206.00000</ele>
        <time>2010-01-01T02:15:15Z</time>
      </trkpt>
      <trkpt lat="31.70283000" lon="34.84769000">
        <ele>203.00000</ele>
        <time>2010-01-01T02:15:23Z</time>
      </trkpt>
      <trkpt lat="31.70290000" lon="34.84768000">
        <ele>202.00000</ele>
        <time>2010-01-01T02:15:26Z</time>
      </trkpt>
      <trkpt lat="31.70298000" lon="34.84770000">
        <ele>201.00000</ele>
        <time>2010-01-01T02:15:29Z</time>
      </trkpt>
      <trkpt lat="31.70311000" lon="34.84777000">
        <ele>200.00000</ele>
        <time>2010-01-01T02:15:35Z</time>
      </trkpt>
      <trkpt lat="31.70316000" lon="34.84781000">
        <ele>199.00000</ele>
        <time>2010-01-01T02:15:38Z</time>
      </trkpt>
      <trkpt lat="31.70320000" lon="34.84788000">
        <ele>199.00000</ele>
        <time>2010-01-01T02:15:40Z</time>
      </trkpt>
      <trkpt lat="31.70325000" lon="34.84806000">
        <ele>198.00000</ele>
        <time>2010-01-01T02:15:47Z</time>
      </trkpt>
      <trkpt lat="31.70331000" lon="34.84813000">
        <ele>197.00000</ele>
        <time>2010-01-01T02:15:50Z</time>
      </trkpt>
      <trkpt lat="31.70343000" lon="34.84817000">
        <ele>195.00000</ele>
        <time>2010-01-01T02:15:55Z</time>
      </trkpt>
      <trkpt lat="31.70344000" lon="34.84819000">
        <ele>195.00000</ele>
        <time>2010-01-01T02:15:56Z</time>
      </trkpt>
      <trkpt lat="31.70344000" lon="34.84818000">
        <ele>195.00000</ele>
        <time>2010-01-01T02:15:56Z</time>
      </trkpt>
      <trkpt lat="31.70352000" lon="34.84835000">
        <ele>193.00000</ele>
        <time>2010-01-01T02:16:03Z</time>
      </trkpt>
      <trkpt lat="31.70358000" lon="34.84854000">
        <ele>190.00000</ele>
        <time>2010-01-01T02:16:10Z</time>
      </trkpt>
      <trkpt lat="31.70363000" lon="34.84864000">
        <ele>189.00000</ele>
        <time>2010-01-01T02:16:14Z</time>
      </trkpt>
      <trkpt lat="31.70359000" lon="34.84873000">
        <ele>189.00000</ele>
        <time>2010-01-01T02:16:17Z</time>
      </trkpt>
      <trkpt lat="31.70358000" lon="34.84885000">
        <ele>188.00000</ele>
        <time>2010-01-01T02:16:21Z</time>
      </trkpt>
      <trkpt lat="31.70367000" lon="34.84903000">
        <ele>187.00000</ele>
        <time>2010-01-01T02:16:29Z</time>
      </trkpt>
      <trkpt lat="31.70370000" lon="34.84924000">
        <ele>184.00000</ele>
        <time>2010-01-01T02:16:36Z</time>
      </trkpt>
      <trkpt lat="31.70381000" lon="34.84949000">
        <ele>183.00000</ele>
        <time>2010-01-01T02:16:45Z</time>
      </trkpt>
      <trkpt lat="31.70389000" lon="34.84982000">
        <ele>181.00000</ele>
        <time>2010-01-01T02:16:57Z</time>
      </trkpt>
      <trkpt lat="31.70389000" lon="34.84981000">
        <ele>181.00000</ele>
        <time>2010-01-01T02:16:57Z</time>
      </trkpt>
      <trkpt lat="31.70392000" lon="34.85008000">
        <ele>181.00000</ele>
        <time>2010-01-01T02:17:07Z</time>
      </trkpt>
      <trkpt lat="31.70394000" lon="34.85064000">
        <ele>181.00000</ele>
        <time>2010-01-01T02:17:26Z</time>
      </trkpt>
      <trkpt lat="31.70396000" lon="34.85077000">
        <ele>181.00000</ele>
        <time>2010-01-01T02:17:30Z</time>
      </trkpt>
      <trkpt lat="31.70401000" lon="34.85088000">
        <ele>181.00000</ele>
        <time>2010-01-01T02:17:35Z</time>
      </trkpt>
      <trkpt lat="31.70420000" lon="34.85117000">
        <ele>178.00000</ele>
        <time>2010-01-01T02:17:47Z</time>
      </trkpt>
      <trkpt lat="31.70420000" lon="34.85130000">
        <ele>176.00000</ele>
        <time>2010-01-01T02:17:51Z</time>
      </trkpt>
      <trkpt lat="31.70423000" lon="34.85159000">
        <ele>171.00000</ele>
        <time>2010-01-01T02:18:01Z</time>
      </trkpt>
      <trkpt lat="31.70418000" lon="34.85188000">
        <ele>169.00000</ele>
        <time>2010-01-01T02:18:11Z</time>
      </trkpt>
      <trkpt lat="31.70414000" lon="34.85227000">
        <ele>163.00000</ele>
        <time>2010-01-01T02:18:25Z</time>
      </trkpt>
      <trkpt lat="31.70416000" lon="34.85248000">
        <ele>159.00000</ele>
        <time>2010-01-01T02:18:32Z</time>
      </trkpt>
      <trkpt lat="31.70416000" lon="34.85247000">
        <ele>159.00000</ele>
        <time>2010-01-01T02:18:32Z</time>
      </trkpt>
      <trkpt lat="31.70417000" lon="34.85300000">
        <ele>148.00000</ele>
        <time>2010-01-01T02:18:50Z</time>
      </trkpt>
      <trkpt lat="31.70425000" lon="34.85365000">
        <ele>137.00000</ele>
        <time>2010-01-01T02:19:13Z</time>
      </trkpt>
      <trkpt lat="31.70424000" lon="34.85385000">
        <ele>137.00000</ele>
        <time>2010-01-01T02:19:20Z</time>
      </trkpt>
      <trkpt lat="31.70391000" lon="34.85375000">
        <ele>138.00000</ele>
        <time>2010-01-01T02:19:33Z</time>
      </trkpt>
      <trkpt lat="31.70336000" lon="34.85363000">
        <ele>140.00000</ele>
        <time>2010-01-01T02:19:56Z</time>
      </trkpt>
      <trkpt lat="31.70335000" lon="34.85363000">
        <ele>140.00000</ele>
        <time>2010-01-01T02:19:56Z</time>
      </trkpt>
      <trkpt lat="31.70280000" lon="34.85354000">
        <ele>141.00000</ele>
        <time>2010-01-01T02:20:18Z</time>
      </trkpt>
      <trkpt lat="31.70270000" lon="34.85348000">
        <ele>142.00000</ele>
        <time>2010-01-01T02:20:23Z</time>
      </trkpt>
      <trkpt lat="31.70243000" lon="34.85322000">
        <ele>143.00000</ele>
        <time>2010-01-01T02:20:37Z</time>
      </trkpt>
      <trkpt lat="31.70234000" lon="34.85316000">
        <ele>143.00000</ele>
        <time>2010-01-01T02:20:41Z</time>
      </trkpt>
      <trkpt lat="31.70205000" lon="34.85308000">
        <ele>143.00000</ele>
        <time>2010-01-01T02:20:53Z</time>
      </trkpt>
      <trkpt lat="31.70186000" lon="34.85296000">
        <ele>143.00000</ele>
        <time>2010-01-01T02:21:01Z</time>
      </trkpt>
      <trkpt lat="31.70154000" lon="34.85283000">
        <ele>145.00000</ele>
        <time>2010-01-01T02:21:15Z</time>
      </trkpt>
      <trkpt lat="31.70125000" lon="34.85285000">
        <ele>145.00000</ele>
        <time>2010-01-01T02:21:27Z</time>
      </trkpt>
      <trkpt lat="31.70112000" lon="34.85289000">
        <ele>145.00000</ele>
        <time>2010-01-01T02:21:32Z</time>
      </trkpt>
      <trkpt lat="31.70102000" lon="34.85289000">
        <ele>145.00000</ele>
        <time>2010-01-01T02:21:36Z</time>
      </trkpt>
      <trkpt lat="31.70068000" lon="34.85275000">
        <ele>147.00000</ele>
        <time>2010-01-01T02:21:50Z</time>
      </trkpt>
      <trkpt lat="31.70050000" lon="34.85265000">
        <ele>148.00000</ele>
        <time>2010-01-01T02:21:58Z</time>
      </trkpt>
      <trkpt lat="31.70018000" lon="34.85235000">
        <ele>150.00000</ele>
        <time>2010-01-01T02:22:15Z</time>
      </trkpt>
      <trkpt lat="31.69982000" lon="34.85208000">
        <ele>154.00000</ele>
        <time>2010-01-01T02:22:32Z</time>
      </trkpt>
      <trkpt lat="31.69964000" lon="34.85197000">
        <ele>155.00000</ele>
        <time>2010-01-01T02:22:40Z</time>
      </trkpt>
      <trkpt lat="31.69956000" lon="34.85189000">
        <ele>156.00000</ele>
        <time>2010-01-01T02:22:44Z</time>
      </trkpt>
      <trkpt lat="31.69941000" lon="34.85165000">
        <ele>159.00000</ele>
        <time>2010-01-01T02:22:54Z</time>
      </trkpt>
      <trkpt lat="31.69930000" lon="34.85142000">
        <ele>164.00000</ele>
        <time>2010-01-01T02:23:03Z</time>
      </trkpt>
      <trkpt lat="31.69923000" lon="34.85134000">
        <ele>165.00000</ele>
        <time>2010-01-01T02:23:07Z</time>
      </trkpt>
      <trkpt lat="31.69908000" lon="34.85124000">
        <ele>165.00000</ele>
        <time>2010-01-01T02:23:14Z</time>
      </trkpt>
      <trkpt lat="31.69892000" lon="34.85108000">
        <ele>167.00000</ele>
        <time>2010-01-01T02:23:23Z</time>
      </trkpt>
      <trkpt lat="31.69883000" lon="34.85106000">
        <ele>167.00000</ele>
        <time>2010-01-01T02:23:26Z</time>
      </trkpt>
      <trkpt lat="31.69839000" lon="34.85112000">
        <ele>165.00000</ele>
        <time>2010-01-01T02:23:44Z</time>
      </trkpt>
      <trkpt lat="31.69828000" lon="34.85111000">
        <ele>166.00000</ele>
        <time>2010-01-01T02:23:48Z</time>
      </trkpt>
      <trkpt lat="31.69802000" lon="34.85101000">
        <ele>168.00000</ele>
        <time>2010-01-01T02:23:59Z</time>
      </trkpt>
      <trkpt lat="31.69766000" lon="34.85077000">
        <ele>167.00000</ele>
        <time>2010-01-01T02:24:16Z</time>
      </trkpt>
      <trkpt lat="31.69746000" lon="34.85067000">
        <ele>167.00000</ele>
        <time>2010-01-01T02:24:25Z</time>
      </trkpt>
      <trkpt lat="31.69736000" lon="34.85060000">
        <ele>166.00000</ele>
        <time>2010-01-01T02:24:29Z</time>
      </trkpt>
      <trkpt lat="31.69695000" lon="34.85021000">
        <ele>164.00000</ele>
        <time>2010-01-01T02:24:50Z</time>
      </trkpt>
      <trkpt lat="31.69654000" lon="34.84989000">
        <ele>162.00000</ele>
        <time>2010-01-01T02:25:10Z</time>
      </trkpt>
      <trkpt lat="31.69645000" lon="34.84983000">
        <ele>161.00000</ele>
        <time>2010-01-01T02:25:14Z</time>
      </trkpt>
      <trkpt lat="31.69644000" lon="34.84983000">
        <ele>161.00000</ele>
        <time>2010-01-01T02:25:15Z</time>
      </trkpt>
      <trkpt lat="31.69632000" lon="34.84976000">
        <ele>160.00000</ele>
        <time>2010-01-01T02:25:20Z</time>
      </trkpt>
      <trkpt lat="31.69615000" lon="34.84962000">
        <ele>158.00000</ele>
        <time>2010-01-01T02:25:28Z</time>
      </trkpt>
      <trkpt lat="31.69595000" lon="34.84942000">
        <ele>157.00000</ele>
        <time>2010-01-01T02:25:39Z</time>
      </trkpt>
      <trkpt lat="31.69581000" lon="34.84923000">
        <ele>157.00000</ele>
        <time>2010-01-01T02:25:47Z</time>
      </trkpt>
      <trkpt lat="31.69548000" lon="34.84853000">
        <ele>154.00000</ele>
        <time>2010-01-01T02:26:15Z</time>
      </trkpt>
      <trkpt lat="31.69537000" lon="34.84817000">
        <ele>149.00000</ele>
        <time>2010-01-01T02:26:28Z</time>
      </trkpt>
      <trkpt lat="31.69530000" lon="34.84769000">
        <ele>147.00000</ele>
        <time>2010-01-01T02:26:44Z</time>
      </trkpt>
      <trkpt lat="31.69506000" lon="34.84723000">
        <ele>145.00000</ele>
        <time>2010-01-01T02:27:03Z</time>
      </trkpt>
      <trkpt lat="31.69494450" lon="34.84696980">
        <ele>145.00000</ele>
        <time>2010-01-01T02:27:13Z</time>
      </trkpt>
      <trkpt lat="31.69449720" lon="34.84649770">
        <ele>141.00000</ele>
        <time>2010-01-01T02:27:37Z</time>
      </trkpt>
      <trkpt lat="31.69425080" lon="34.84644410">
        <ele>139.00000</ele>
        <time>2010-01-01T02:27:47Z</time>
      </trkpt>
      <trkpt lat="31.69400430" lon="34.84723800">
        <ele>144.00000</ele>
        <time>2010-01-01T02:28:15Z</time>
      </trkpt>
      <trkpt lat="31.69401000" lon="34.84724000">
        <ele>144.00000</ele>
        <time>2010-01-01T02:28:16Z</time>
      </trkpt>
      <trkpt lat="31.69352000" lon="34.84877000">
        <ele>147.00000</ele>
        <time>2010-01-01T02:29:11Z</time>
      </trkpt>
      <trkpt lat="31.69333000" lon="34.84962000">
        <ele>149.00000</ele>
        <time>2010-01-01T02:29:41Z</time>
      </trkpt>
      <trkpt lat="31.69313000" lon="34.85019000">
        <ele>150.00000</ele>
        <time>2010-01-01T02:30:02Z</time>
      </trkpt>
      <trkpt lat="31.69312000" lon="34.85035000">
        <ele>151.00000</ele>
        <time>2010-01-01T02:30:08Z</time>
      </trkpt>
      <trkpt lat="31.69321000" lon="34.85046000">
        <ele>151.00000</ele>
        <time>2010-01-01T02:30:13Z</time>
      </trkpt>
      <trkpt lat="31.69343000" lon="34.85086000">
        <ele>151.00000</ele>
        <time>2010-01-01T02:30:29Z</time>
      </trkpt>
      <trkpt lat="31.69361000" lon="34.85128000">
        <ele>153.00000</ele>
        <time>2010-01-01T02:30:45Z</time>
      </trkpt>
      <trkpt lat="31.69364000" lon="34.85140000">
        <ele>153.00000</ele>
        <time>2010-01-01T02:30:50Z</time>
      </trkpt>
      <trkpt lat="31.69364000" lon="34.85139000">
        <ele>153.00000</ele>
        <time>2010-01-01T02:30:50Z</time>
      </trkpt>
      <trkpt lat="31.69370000" lon="34.85164000">
        <ele>153.00000</ele>
        <time>2010-01-01T02:30:59Z</time>
      </trkpt>
      <trkpt lat="31.69378000" lon="34.85221000">
        <ele>153.00000</ele>
        <time>2010-01-01T02:31:18Z</time>
      </trkpt>
      <trkpt lat="31.69376000" lon="34.85243000">
        <ele>154.00000</ele>
        <time>2010-01-01T02:31:26Z</time>
      </trkpt>
      <trkpt lat="31.69367000" lon="34.85267000">
        <ele>155.00000</ele>
        <time>2010-01-01T02:31:35Z</time>
      </trkpt>
      <trkpt lat="31.69343000" lon="34.85320000">
        <ele>156.00000</ele>
        <time>2010-01-01T02:31:55Z</time>
      </trkpt>
      <trkpt lat="31.69339000" lon="34.85338000">
        <ele>156.00000</ele>
        <time>2010-01-01T02:32:02Z</time>
      </trkpt>
      <trkpt lat="31.69332000" lon="34.85431000">
        <ele>157.00000</ele>
        <time>2010-01-01T02:32:33Z</time>
      </trkpt>
      <trkpt lat="31.69335000" lon="34.85456000">
        <ele>157.00000</ele>
        <time>2010-01-01T02:32:42Z</time>
      </trkpt>
      <trkpt lat="31.69335000" lon="34.85455000">
        <ele>157.00000</ele>
        <time>2010-01-01T02:32:42Z</time>
      </trkpt>
      <trkpt lat="31.69336000" lon="34.85466000">
        <ele>157.00000</ele>
        <time>2010-01-01T02:32:46Z</time>
      </trkpt>
      <trkpt lat="31.69332000" lon="34.85493000">
        <ele>157.00000</ele>
        <time>2010-01-01T02:32:55Z</time>
      </trkpt>
      <trkpt lat="31.69326000" lon="34.85522000">
        <ele>158.00000</ele>
        <time>2010-01-01T02:33:06Z</time>
      </trkpt>
      <trkpt lat="31.69318000" lon="34.85547000">
        <ele>159.00000</ele>
        <time>2010-01-01T02:33:15Z</time>
      </trkpt>
      <trkpt lat="31.69307000" lon="34.85572000">
        <ele>161.00000</ele>
        <time>2010-01-01T02:33:24Z</time>
      </trkpt>
      <trkpt lat="31.69296000" lon="34.85596000">
        <ele>162.00000</ele>
        <time>2010-01-01T02:33:34Z</time>
      </trkpt>
      <trkpt lat="31.69241000" lon="34.85687000">
        <ele>164.00000</ele>
        <time>2010-01-01T02:34:12Z</time>
      </trkpt>
      <trkpt lat="31.69206000" lon="34.85755000">
        <ele>168.00000</ele>
        <time>2010-01-01T02:34:39Z</time>
      </trkpt>
      <trkpt lat="31.69194000" lon="34.85772000">
        <ele>168.00000</ele>
        <time>2010-01-01T02:34:46Z</time>
      </trkpt>
      <trkpt lat="31.69162000" lon="34.85807000">
        <ele>166.00000</ele>
        <time>2010-01-01T02:35:04Z</time>
      </trkpt>
      <trkpt lat="31.69148000" lon="34.85829000">
        <ele>164.00000</ele>
        <time>2010-01-01T02:35:13Z</time>
      </trkpt>
      <trkpt lat="31.69137000" lon="34.85851000">
        <ele>164.00000</ele>
        <time>2010-01-01T02:35:22Z</time>
      </trkpt>
      <trkpt lat="31.69128000" lon="34.85885000">
        <ele>161.00000</ele>
        <time>2010-01-01T02:35:34Z</time>
      </trkpt>
      <trkpt lat="31.69127000" lon="34.85900000">
        <ele>159.00000</ele>
        <time>2010-01-01T02:35:39Z</time>
      </trkpt>
      <trkpt lat="31.69131000" lon="34.85951000">
        <ele>157.00000</ele>
        <time>2010-01-01T02:35:56Z</time>
      </trkpt>
      <trkpt lat="31.69125000" lon="34.86054000">
        <ele>157.00000</ele>
        <time>2010-01-01T02:36:32Z</time>
      </trkpt>
      <trkpt lat="31.69119000" lon="34.86097000">
        <ele>157.00000</ele>
        <time>2010-01-01T02:36:46Z</time>
      </trkpt>
      <trkpt lat="31.69124000" lon="34.86163000">
        <ele>156.00000</ele>
        <time>2010-01-01T02:37:09Z</time>
      </trkpt>
      <trkpt lat="31.69145000" lon="34.86213000">
        <ele>156.00000</ele>
        <time>2010-01-01T02:37:28Z</time>
      </trkpt>
      <trkpt lat="31.69144000" lon="34.86213000">
        <ele>156.00000</ele>
        <time>2010-01-01T02:37:28Z</time>
      </trkpt>
      <trkpt lat="31.69150000" lon="34.86226000">
        <ele>156.00000</ele>
        <time>2010-01-01T02:37:33Z</time>
      </trkpt>
      <trkpt lat="31.69159000" lon="34.86282000">
        <ele>159.00000</ele>
        <time>2010-01-01T02:37:53Z</time>
      </trkpt>
      <trkpt lat="31.69162000" lon="34.86395000">
        <ele>159.00000</ele>
        <time>2010-01-01T02:38:31Z</time>
      </trkpt>
      <trkpt lat="31.69178000" lon="34.86508000">
        <ele>159.00000</ele>
        <time>2010-01-01T02:39:10Z</time>
      </trkpt>
      <trkpt lat="31.69175000" lon="34.86587000">
        <ele>161.00000</ele>
        <time>2010-01-01T02:39:37Z</time>
      </trkpt>
      <trkpt lat="31.69152000" lon="34.86667000">
        <ele>160.00000</ele>
        <time>2010-01-01T02:40:06Z</time>
      </trkpt>
      <trkpt lat="31.69125000" lon="34.86726000">
        <ele>163.00000</ele>
        <time>2010-01-01T02:40:29Z</time>
      </trkpt>
      <trkpt lat="31.69082000" lon="34.86819000">
        <ele>164.00000</ele>
        <time>2010-01-01T02:41:05Z</time>
      </trkpt>
      <trkpt lat="31.68984000" lon="34.87012000">
        <ele>165.00000</ele>
        <time>2010-01-01T02:42:22Z</time>
      </trkpt>
      <trkpt lat="31.68957000" lon="34.87053000">
        <ele>164.00000</ele>
        <time>2010-01-01T02:42:39Z</time>
      </trkpt>
      <trkpt lat="31.68835000" lon="34.87231000">
        <ele>166.00000</ele>
        <time>2010-01-01T02:43:57Z</time>
      </trkpt>
      <trkpt lat="31.68781000" lon="34.87269000">
        <ele>165.00000</ele>
        <time>2010-01-01T02:44:22Z</time>
      </trkpt>
      <trkpt lat="31.68733000" lon="34.87301000">
        <ele>163.00000</ele>
        <time>2010-01-01T02:44:44Z</time>
      </trkpt>
      <trkpt lat="31.68709000" lon="34.87352000">
        <ele>166.00000</ele>
        <time>2010-01-01T02:45:04Z</time>
      </trkpt>
      <trkpt lat="31.68542000" lon="34.87546000">
        <ele>168.00000</ele>
        <time>2010-01-01T02:46:38Z</time>
      </trkpt>
      <trkpt lat="31.68531000" lon="34.87568000">
        <ele>167.00000</ele>
        <time>2010-01-01T02:46:47Z</time>
      </trkpt>
      <trkpt lat="31.68497000" lon="34.87701000">
        <ele>168.00000</ele>
        <time>2010-01-01T02:47:34Z</time>
      </trkpt>
      <trkpt lat="31.68474000" lon="34.87759000">
        <ele>168.00000</ele>
        <time>2010-01-01T02:47:56Z</time>
      </trkpt>
      <trkpt lat="31.68363000" lon="34.87893000">
        <ele>170.00000</ele>
        <time>2010-01-01T02:49:00Z</time>
      </trkpt>
      <trkpt lat="31.68323000" lon="34.87951000">
        <ele>170.00000</ele>
        <time>2010-01-01T02:49:25Z</time>
      </trkpt>
      <trkpt lat="31.68282000" lon="34.87974000">
        <ele>169.00000</ele>
        <time>2010-01-01T02:49:43Z</time>
      </trkpt>
      <trkpt lat="31.68243000" lon="34.87996000">
        <ele>171.00000</ele>
        <time>2010-01-01T02:50:01Z</time>
      </trkpt>
      <trkpt lat="31.68194000" lon="34.88009000">
        <ele>172.00000</ele>
        <time>2010-01-01T02:50:21Z</time>
      </trkpt>
      <trkpt lat="31.68159000" lon="34.88033000">
        <ele>172.00000</ele>
        <time>2010-01-01T02:50:37Z</time>
      </trkpt>
      <trkpt lat="31.68149000" lon="34.88046000">
        <ele>172.00000</ele>
        <time>2010-01-01T02:50:43Z</time>
      </trkpt>
      <trkpt lat="31.68141000" lon="34.88063000">
        <ele>172.00000</ele>
        <time>2010-01-01T02:50:50Z</time>
      </trkpt>
      <trkpt lat="31.68126000" lon="34.88154000">
        <ele>172.00000</ele>
        <time>2010-01-01T02:51:21Z</time>
      </trkpt>
      <trkpt lat="31.68111000" lon="34.88299000">
        <ele>175.00000</ele>
        <time>2010-01-01T02:52:11Z</time>
      </trkpt>
      <trkpt lat="31.68058000" lon="34.88328000">
        <ele>177.00000</ele>
        <time>2010-01-01T02:52:34Z</time>
      </trkpt>
      <trkpt lat="31.68032000" lon="34.88336000">
        <ele>178.00000</ele>
        <time>2010-01-01T02:52:45Z</time>
      </trkpt>
      <trkpt lat="31.68033000" lon="34.88347000">
        <ele>178.00000</ele>
        <time>2010-01-01T02:52:49Z</time>
      </trkpt>
      <trkpt lat="31.67974000" lon="34.88368000">
        <ele>183.00000</ele>
        <time>2010-01-01T02:53:13Z</time>
      </trkpt>
      <trkpt lat="31.67963000" lon="34.88376000">
        <ele>184.00000</ele>
        <time>2010-01-01T02:53:19Z</time>
      </trkpt>
      <trkpt lat="31.67957000" lon="34.88385000">
        <ele>184.00000</ele>
        <time>2010-01-01T02:53:23Z</time>
      </trkpt>
      <trkpt lat="31.67946000" lon="34.88399000">
        <ele>185.00000</ele>
        <time>2010-01-01T02:53:29Z</time>
      </trkpt>
      <trkpt lat="31.67941000" lon="34.88409000">
        <ele>185.00000</ele>
        <time>2010-01-01T02:53:33Z</time>
      </trkpt>
      <trkpt lat="31.67933000" lon="34.88438000">
        <ele>187.00000</ele>
        <time>2010-01-01T02:53:43Z</time>
      </trkpt>
      <trkpt lat="31.67930000" lon="34.88457000">
        <ele>189.00000</ele>
        <time>2010-01-01T02:53:50Z</time>
      </trkpt>
      <trkpt lat="31.67924000" lon="34.88482000">
        <ele>190.00000</ele>
        <time>2010-01-01T02:53:59Z</time>
      </trkpt>
      <trkpt lat="31.67918000" lon="34.88496000">
        <ele>190.00000</ele>
        <time>2010-01-01T02:54:04Z</time>
      </trkpt>
      <trkpt lat="31.67912000" lon="34.88504000">
        <ele>190.00000</ele>
        <time>2010-01-01T02:54:08Z</time>
      </trkpt>
      <trkpt lat="31.67906000" lon="34.88508000">
        <ele>190.00000</ele>
        <time>2010-01-01T02:54:11Z</time>
      </trkpt>
      <trkpt lat="31.67900000" lon="34.88509000">
        <ele>191.00000</ele>
        <time>2010-01-01T02:54:13Z</time>
      </trkpt>
      <trkpt lat="31.67863000" lon="34.88498000">
        <ele>193.00000</ele>
        <time>2010-01-01T02:54:28Z</time>
      </trkpt>
      <trkpt lat="31.67856000" lon="34.88499000">
        <ele>193.00000</ele>
        <time>2010-01-01T02:54:31Z</time>
      </trkpt>
      <trkpt lat="31.67846000" lon="34.88504000">
        <ele>194.00000</ele>
        <time>2010-01-01T02:54:35Z</time>
      </trkpt>
      <trkpt lat="31.67836000" lon="34.88518000">
        <ele>195.00000</ele>
        <time>2010-01-01T02:54:42Z</time>
      </trkpt>
      <trkpt lat="31.67827000" lon="34.88543000">
        <ele>197.00000</ele>
        <time>2010-01-01T02:54:51Z</time>
      </trkpt>
      <trkpt lat="31.67820000" lon="34.88557000">
        <ele>197.00000</ele>
        <time>2010-01-01T02:54:56Z</time>
      </trkpt>
      <trkpt lat="31.67806000" lon="34.88573000">
        <ele>197.00000</ele>
        <time>2010-01-01T02:55:04Z</time>
      </trkpt>
      <trkpt lat="31.67785000" lon="34.88587000">
        <ele>198.00000</ele>
        <time>2010-01-01T02:55:14Z</time>
      </trkpt>
      <trkpt lat="31.67752000" lon="34.88593000">
        <ele>200.00000</ele>
        <time>2010-01-01T02:55:27Z</time>
      </trkpt>
      <trkpt lat="31.67716000" lon="34.88592000">
        <ele>204.00000</ele>
        <time>2010-01-01T02:55:42Z</time>
      </trkpt>
      <trkpt lat="31.67693000" lon="34.88594000">
        <ele>208.00000</ele>
        <time>2010-01-01T02:55:51Z</time>
      </trkpt>
      <trkpt lat="31.67677000" lon="34.88596000">
        <ele>208.00000</ele>
        <time>2010-01-01T02:55:57Z</time>
      </trkpt>
      <trkpt lat="31.67669000" lon="34.88598000">
        <ele>208.00000</ele>
        <time>2010-01-01T02:56:01Z</time>
      </trkpt>
      <trkpt lat="31.67637000" lon="34.88615000">
        <ele>209.00000</ele>
        <time>2010-01-01T02:56:15Z</time>
      </trkpt>
      <trkpt lat="31.67626000" lon="34.88617000">
        <ele>209.00000</ele>
        <time>2010-01-01T02:56:19Z</time>
      </trkpt>
      <trkpt lat="31.67583000" lon="34.88603000">
        <ele>208.00000</ele>
        <time>2010-01-01T02:56:37Z</time>
      </trkpt>
      <trkpt lat="31.67534000" lon="34.88599000">
        <ele>205.00000</ele>
        <time>2010-01-01T02:56:57Z</time>
      </trkpt>
      <trkpt lat="31.67504000" lon="34.88639000">
        <ele>210.00000</ele>
        <time>2010-01-01T02:57:15Z</time>
      </trkpt>
      <trkpt lat="31.67467000" lon="34.88663000">
        <ele>213.00000</ele>
        <time>2010-01-01T02:57:32Z</time>
      </trkpt>
      <trkpt lat="31.67459000" lon="34.88697000">
        <ele>214.00000</ele>
        <time>2010-01-01T02:57:44Z</time>
      </trkpt>
      <trkpt lat="31.67464000" lon="34.88752000">
        <ele>214.00000</ele>
        <time>2010-01-01T02:58:03Z</time>
      </trkpt>
      <trkpt lat="31.67449000" lon="34.88775000">
        <ele>213.00000</ele>
        <time>2010-01-01T02:58:12Z</time>
      </trkpt>
      <trkpt lat="31.67427000" lon="34.88791000">
        <ele>212.00000</ele>
        <time>2010-01-01T02:58:23Z</time>
      </trkpt>
      <trkpt lat="31.67407000" lon="34.88790000">
        <ele>213.00000</ele>
        <time>2010-01-01T02:58:31Z</time>
      </trkpt>
      <trkpt lat="31.67338000" lon="34.88767000">
        <ele>215.00000</ele>
        <time>2010-01-01T02:59:00Z</time>
      </trkpt>
      <trkpt lat="31.67308000" lon="34.88763000">
        <ele>216.00000</ele>
        <time>2010-01-01T02:59:12Z</time>
      </trkpt>
      <trkpt lat="31.67297000" lon="34.88770000">
        <ele>217.00000</ele>
        <time>2010-01-01T02:59:17Z</time>
      </trkpt>
      <trkpt lat="31.67279000" lon="34.88807000">
        <ele>220.00000</ele>
        <time>2010-01-01T02:59:31Z</time>
      </trkpt>
      <trkpt lat="31.67245000" lon="34.88837000">
        <ele>222.00000</ele>
        <time>2010-01-01T02:59:48Z</time>
      </trkpt>
      <trkpt lat="31.67231000" lon="34.88841000">
        <ele>223.00000</ele>
        <time>2010-01-01T02:59:54Z</time>
      </trkpt>
      <trkpt lat="31.67216000" lon="34.88834000">
        <ele>223.00000</ele>
        <time>2010-01-01T03:00:00Z</time>
      </trkpt>
      <trkpt lat="31.67184000" lon="34.88806000">
        <ele>225.00000</ele>
        <time>2010-01-01T03:00:16Z</time>
      </trkpt>
      <trkpt lat="31.67162000" lon="34.88793000">
        <ele>223.00000</ele>
        <time>2010-01-01T03:00:26Z</time>
      </trkpt>
      <trkpt lat="31.67143000" lon="34.88773000">
        <ele>220.00000</ele>
        <time>2010-01-01T03:00:36Z</time>
      </trkpt>
      <trkpt lat="31.67135000" lon="34.88772000">
        <ele>219.00000</ele>
        <time>2010-01-01T03:00:40Z</time>
      </trkpt>
      <trkpt lat="31.67128000" lon="34.88775000">
        <ele>218.00000</ele>
        <time>2010-01-01T03:00:43Z</time>
      </trkpt>
      <trkpt lat="31.67113000" lon="34.88791000">
        <ele>219.00000</ele>
        <time>2010-01-01T03:00:51Z</time>
      </trkpt>
      <trkpt lat="31.67085000" lon="34.88831000">
        <ele>225.00000</ele>
        <time>2010-01-01T03:01:08Z</time>
      </trkpt>
      <trkpt lat="31.67048000" lon="34.88910000">
        <ele>227.00000</ele>
        <time>2010-01-01T03:01:39Z</time>
      </trkpt>
      <trkpt lat="31.67045000" lon="34.88959000">
        <ele>230.00000</ele>
        <time>2010-01-01T03:01:56Z</time>
      </trkpt>
      <trkpt lat="31.67042000" lon="34.88996000">
        <ele>230.00000</ele>
        <time>2010-01-01T03:02:09Z</time>
      </trkpt>
      <trkpt lat="31.67022000" lon="34.89045000">
        <ele>229.00000</ele>
        <time>2010-01-01T03:02:27Z</time>
      </trkpt>
      <trkpt lat="31.67013000" lon="34.89085000">
        <ele>229.00000</ele>
        <time>2010-01-01T03:02:41Z</time>
      </trkpt>
      <trkpt lat="31.67014000" lon="34.89107000">
        <ele>230.00000</ele>
        <time>2010-01-01T03:02:49Z</time>
      </trkpt>
      <trkpt lat="31.67018000" lon="34.89120000">
        <ele>231.00000</ele>
        <time>2010-01-01T03:02:53Z</time>
      </trkpt>
      <trkpt lat="31.67014000" lon="34.89145000">
        <ele>231.00000</ele>
        <time>2010-01-01T03:03:02Z</time>
      </trkpt>
      <trkpt lat="31.66999000" lon="34.89172000">
        <ele>230.00000</ele>
        <time>2010-01-01T03:03:13Z</time>
      </trkpt>
      <trkpt lat="31.66988000" lon="34.89180000">
        <ele>229.00000</ele>
        <time>2010-01-01T03:03:18Z</time>
      </trkpt>
      <trkpt lat="31.66987000" lon="34.89194000">
        <ele>230.00000</ele>
        <time>2010-01-01T03:03:23Z</time>
      </trkpt>
      <trkpt lat="31.66982000" lon="34.89202000">
        <ele>230.00000</ele>
        <time>2010-01-01T03:03:26Z</time>
      </trkpt>
      <trkpt lat="31.66962000" lon="34.89227000">
        <ele>230.00000</ele>
        <time>2010-01-01T03:03:38Z</time>
      </trkpt>
      <trkpt lat="31.66957000" lon="34.89237000">
        <ele>231.00000</ele>
        <time>2010-01-01T03:03:42Z</time>
      </trkpt>
      <trkpt lat="31.66954000" lon="34.89264000">
        <ele>233.00000</ele>
        <time>2010-01-01T03:03:51Z</time>
      </trkpt>
      <trkpt lat="31.66946000" lon="34.89279000">
        <ele>234.00000</ele>
        <time>2010-01-01T03:03:57Z</time>
      </trkpt>
      <trkpt lat="31.66942000" lon="34.89285000">
        <ele>234.00000</ele>
        <time>2010-01-01T03:04:00Z</time>
      </trkpt>
      <trkpt lat="31.66913000" lon="34.89300000">
        <ele>233.00000</ele>
        <time>2010-01-01T03:04:13Z</time>
      </trkpt>
      <trkpt lat="31.66902000" lon="34.89311000">
        <ele>233.00000</ele>
        <time>2010-01-01T03:04:18Z</time>
      </trkpt>
      <trkpt lat="31.66892000" lon="34.89335000">
        <ele>233.00000</ele>
        <time>2010-01-01T03:04:27Z</time>
      </trkpt>
      <trkpt lat="31.66882000" lon="34.89408000">
        <ele>229.00000</ele>
        <time>2010-01-01T03:04:53Z</time>
      </trkpt>
      <trkpt lat="31.66879000" lon="34.89455000">
        <ele>227.00000</ele>
        <time>2010-01-01T03:05:09Z</time>
      </trkpt>
      <trkpt lat="31.66891000" lon="34.89490000">
        <ele>227.00000</ele>
        <time>2010-01-01T03:05:22Z</time>
      </trkpt>
      <trkpt lat="31.66911000" lon="34.89523000">
        <ele>227.00000</ele>
        <time>2010-01-01T03:05:35Z</time>
      </trkpt>
      <trkpt lat="31.66914000" lon="34.89536000">
        <ele>227.00000</ele>
        <time>2010-01-01T03:05:40Z</time>
      </trkpt>
      <trkpt lat="31.66911000" lon="34.89553000">
        <ele>227.00000</ele>
        <time>2010-01-01T03:05:46Z</time>
      </trkpt>
      <trkpt lat="31.66895000" lon="34.89575000">
        <ele>227.00000</ele>
        <time>2010-01-01T03:05:56Z</time>
      </trkpt>
      <trkpt lat="31.66844000" lon="34.89633000">
        <ele>230.00000</ele>
        <time>2010-01-01T03:06:24Z</time>
      </trkpt>
      <trkpt lat="31.66829000" lon="34.89661000">
        <ele>230.00000</ele>
        <time>2010-01-01T03:06:35Z</time>
      </trkpt>
      <trkpt lat="31.66825000" lon="34.89680000">
        <ele>231.00000</ele>
        <time>2010-01-01T03:06:42Z</time>
      </trkpt>
      <trkpt lat="31.66826000" lon="34.89693000">
        <ele>232.00000</ele>
        <time>2010-01-01T03:06:47Z</time>
      </trkpt>
      <trkpt lat="31.66839000" lon="34.89764000">
        <ele>238.00000</ele>
        <time>2010-01-01T03:07:11Z</time>
      </trkpt>
      <trkpt lat="31.66834000" lon="34.89776000">
        <ele>238.00000</ele>
        <time>2010-01-01T03:07:16Z</time>
      </trkpt>
      <trkpt lat="31.66763000" lon="34.89899000">
        <ele>247.00000</ele>
        <time>2010-01-01T03:08:06Z</time>
      </trkpt>
      <trkpt lat="31.66736000" lon="34.89964000">
        <ele>246.00000</ele>
        <time>2010-01-01T03:08:31Z</time>
      </trkpt>
      <trkpt lat="31.66735000" lon="34.89974000">
        <ele>245.00000</ele>
        <time>2010-01-01T03:08:35Z</time>
      </trkpt>
      <trkpt lat="31.66731000" lon="34.90002000">
        <ele>245.00000</ele>
        <time>2010-01-01T03:08:44Z</time>
      </trkpt>
      <trkpt lat="31.66725000" lon="34.90108000">
        <ele>247.00000</ele>
        <time>2010-01-01T03:09:20Z</time>
      </trkpt>
      <trkpt lat="31.66771000" lon="34.90138000">
        <ele>248.00000</ele>
        <time>2010-01-01T03:09:41Z</time>
      </trkpt>
      <trkpt lat="31.66841000" lon="34.90166000">
        <ele>246.00000</ele>
        <time>2010-01-01T03:10:11Z</time>
      </trkpt>
      <trkpt lat="31.66861000" lon="34.90165000">
        <ele>246.00000</ele>
        <time>2010-01-01T03:10:19Z</time>
      </trkpt>
      <trkpt lat="31.66939000" lon="34.90152000">
        <ele>244.00000</ele>
        <time>2010-01-01T03:10:51Z</time>
      </trkpt>
      <trkpt lat="31.66979000" lon="34.90139000">
        <ele>242.00000</ele>
        <time>2010-01-01T03:11:07Z</time>
      </trkpt>
      <trkpt lat="31.66993000" lon="34.90144000">
        <ele>240.00000</ele>
        <time>2010-01-01T03:11:13Z</time>
      </trkpt>
      <trkpt lat="31.66997000" lon="34.90151000">
        <ele>239.00000</ele>
        <time>2010-01-01T03:11:16Z</time>
      </trkpt>
      <trkpt lat="31.67000000" lon="34.90169000">
        <ele>237.00000</ele>
        <time>2010-01-01T03:11:22Z</time>
      </trkpt>
      <trkpt lat="31.67000000" lon="34.90264000">
        <ele>242.00000</ele>
        <time>2010-01-01T03:11:55Z</time>
      </trkpt>
      <trkpt lat="31.66998000" lon="34.90280000">
        <ele>242.00000</ele>
        <time>2010-01-01T03:12:00Z</time>
      </trkpt>
      <trkpt lat="31.66981000" lon="34.90309000">
        <ele>241.00000</ele>
        <time>2010-01-01T03:12:12Z</time>
      </trkpt>
      <trkpt lat="31.66957000" lon="34.90332000">
        <ele>239.00000</ele>
        <time>2010-01-01T03:12:24Z</time>
      </trkpt>
      <trkpt lat="31.66928000" lon="34.90351000">
        <ele>237.00000</ele>
        <time>2010-01-01T03:12:38Z</time>
      </trkpt>
      <trkpt lat="31.66895000" lon="34.90366000">
        <ele>234.00000</ele>
        <time>2010-01-01T03:12:52Z</time>
      </trkpt>
      <trkpt lat="31.66888000" lon="34.90379000">
        <ele>232.00000</ele>
        <time>2010-01-01T03:12:57Z</time>
      </trkpt>
      <trkpt lat="31.66904000" lon="34.90462000">
        <ele>227.00000</ele>
        <time>2010-01-01T03:13:26Z</time>
      </trkpt>
      <trkpt lat="31.66910000" lon="34.90483000">
        <ele>226.00000</ele>
        <time>2010-01-01T03:13:34Z</time>
      </trkpt>
      <trkpt lat="31.66919000" lon="34.90501000">
        <ele>224.00000</ele>
        <time>2010-01-01T03:13:41Z</time>
      </trkpt>
      <trkpt lat="31.66975000" lon="34.90548000">
        <ele>223.00000</ele>
        <time>2010-01-01T03:14:08Z</time>
      </trkpt>
      <trkpt lat="31.66998000" lon="34.90556000">
        <ele>222.00000</ele>
        <time>2010-01-01T03:14:18Z</time>
      </trkpt>
      <trkpt lat="31.67023000" lon="34.90559000">
        <ele>220.00000</ele>
        <time>2010-01-01T03:14:28Z</time>
      </trkpt>
      <trkpt lat="31.67022000" lon="34.90559000">
        <ele>220.00000</ele>
        <time>2010-01-01T03:14:28Z</time>
      </trkpt>
      <trkpt lat="31.67048000" lon="34.90562000">
        <ele>219.00000</ele>
        <time>2010-01-01T03:14:39Z</time>
      </trkpt>
      <trkpt lat="31.67067000" lon="34.90569000">
        <ele>217.00000</ele>
        <time>2010-01-01T03:14:47Z</time>
      </trkpt>
      <trkpt lat="31.67105000" lon="34.90597000">
        <ele>216.00000</ele>
        <time>2010-01-01T03:15:05Z</time>
      </trkpt>
      <trkpt lat="31.67118000" lon="34.90613000">
        <ele>218.00000</ele>
        <time>2010-01-01T03:15:12Z</time>
      </trkpt>
      <trkpt lat="31.67133000" lon="34.90598000">
        <ele>217.00000</ele>
        <time>2010-01-01T03:15:20Z</time>
      </trkpt>
      <trkpt lat="31.67165000" lon="34.90578000">
        <ele>216.00000</ele>
        <time>2010-01-01T03:15:35Z</time>
      </trkpt>
      <trkpt lat="31.67234000" lon="34.90519000">
        <ele>214.00000</ele>
        <time>2010-01-01T03:16:09Z</time>
      </trkpt>
      <trkpt lat="31.67282000" lon="34.90490000">
        <ele>213.00000</ele>
        <time>2010-01-01T03:16:31Z</time>
      </trkpt>
      <trkpt lat="31.67303000" lon="34.90484000">
        <ele>212.00000</ele>
        <time>2010-01-01T03:16:39Z</time>
      </trkpt>
      <trkpt lat="31.67318000" lon="34.90483000">
        <ele>211.00000</ele>
        <time>2010-01-01T03:16:45Z</time>
      </trkpt>
      <trkpt lat="31.67332000" lon="34.90486000">
        <ele>211.00000</ele>
        <time>2010-01-01T03:16:51Z</time>
      </trkpt>
      <trkpt lat="31.67356000" lon="34.90495000">
        <ele>210.00000</ele>
        <time>2010-01-01T03:17:01Z</time>
      </trkpt>
      <trkpt lat="31.67351000" lon="34.90553000">
        <ele>215.00000</ele>
        <time>2010-01-01T03:17:21Z</time>
      </trkpt>
      <trkpt lat="31.67336000" lon="34.90610000">
        <ele>217.00000</ele>
        <time>2010-01-01T03:17:41Z</time>
      </trkpt>
      <trkpt lat="31.67315000" lon="34.90655000">
        <ele>217.00000</ele>
        <time>2010-01-01T03:17:59Z</time>
      </trkpt>
      <trkpt lat="31.67320000" lon="34.90706000">
        <ele>218.00000</ele>
        <time>2010-01-01T03:18:16Z</time>
      </trkpt>
      <trkpt lat="31.67339000" lon="34.90766000">
        <ele>221.00000</ele>
        <time>2010-01-01T03:18:38Z</time>
      </trkpt>
      <trkpt lat="31.67349000" lon="34.90819000">
        <ele>223.00000</ele>
        <time>2010-01-01T03:18:56Z</time>
      </trkpt>
      <trkpt lat="31.67348000" lon="34.90869000">
        <ele>224.00000</ele>
        <time>2010-01-01T03:19:13Z</time>
      </trkpt>
      <trkpt lat="31.67339000" lon="34.90907000">
        <ele>223.00000</ele>
        <time>2010-01-01T03:19:27Z</time>
      </trkpt>
      <trkpt lat="31.67352000" lon="34.90946000">
        <ele>224.00000</ele>
        <time>2010-01-01T03:19:41Z</time>
      </trkpt>
      <trkpt lat="31.67390000" lon="34.91029000">
        <ele>227.00000</ele>
        <time>2010-01-01T03:20:13Z</time>
      </trkpt>
      <trkpt lat="31.67410000" lon="34.91126000">
        <ele>229.00000</ele>
        <time>2010-01-01T03:20:47Z</time>
      </trkpt>
      <trkpt lat="31.67424000" lon="34.91171000">
        <ele>231.00000</ele>
        <time>2010-01-01T03:21:04Z</time>
      </trkpt>
      <trkpt lat="31.67424000" lon="34.91170000">
        <ele>231.00000</ele>
        <time>2010-01-01T03:21:04Z</time>
      </trkpt>
      <trkpt lat="31.67445000" lon="34.91237000">
        <ele>235.00000</ele>
        <time>2010-01-01T03:21:28Z</time>
      </trkpt>
      <trkpt lat="31.67475000" lon="34.91359000">
        <ele>240.00000</ele>
        <time>2010-01-01T03:22:12Z</time>
      </trkpt>
      <trkpt lat="31.67492000" lon="34.91406000">
        <ele>241.00000</ele>
        <time>2010-01-01T03:22:29Z</time>
      </trkpt>
      <trkpt lat="31.67526000" lon="34.91473000">
        <ele>240.00000</ele>
        <time>2010-01-01T03:22:56Z</time>
      </trkpt>
      <trkpt lat="31.67534000" lon="34.91468000">
        <ele>240.00000</ele>
        <time>2010-01-01T03:22:59Z</time>
      </trkpt>
      <trkpt lat="31.67541000" lon="34.91468000">
        <ele>240.00000</ele>
        <time>2010-01-01T03:23:02Z</time>
      </trkpt>
      <trkpt lat="31.67550000" lon="34.91477000">
        <ele>240.00000</ele>
        <time>2010-01-01T03:23:07Z</time>
      </trkpt>
      <trkpt lat="31.67568000" lon="34.91491000">
        <ele>241.00000</ele>
        <time>2010-01-01T03:23:15Z</time>
      </trkpt>
      <trkpt lat="31.67586000" lon="34.91510000">
        <ele>241.00000</ele>
        <time>2010-01-01T03:23:25Z</time>
      </trkpt>
      <trkpt lat="31.67585000" lon="34.91510000">
        <ele>241.00000</ele>
        <time>2010-01-01T03:23:25Z</time>
      </trkpt>
      <trkpt lat="31.67597000" lon="34.91509000">
        <ele>242.00000</ele>
        <time>2010-01-01T03:23:30Z</time>
      </trkpt>
      <trkpt lat="31.67603000" lon="34.91505000">
        <ele>242.00000</ele>
        <time>2010-01-01T03:23:33Z</time>
      </trkpt>
      <trkpt lat="31.67610000" lon="34.91503000">
        <ele>242.00000</ele>
        <time>2010-01-01T03:23:36Z</time>
      </trkpt>
      <trkpt lat="31.67647000" lon="34.91498000">
        <ele>246.00000</ele>
        <time>2010-01-01T03:23:51Z</time>
      </trkpt>
      <trkpt lat="31.67665000" lon="34.91493000">
        <ele>248.00000</ele>
        <time>2010-01-01T03:23:58Z</time>
      </trkpt>
      <trkpt lat="31.67693000" lon="34.91491000">
        <ele>250.00000</ele>
        <time>2010-01-01T03:24:09Z</time>
      </trkpt>
      <trkpt lat="31.67711000" lon="34.91486000">
        <ele>254.00000</ele>
        <time>2010-01-01T03:24:17Z</time>
      </trkpt>
      <trkpt lat="31.67720000" lon="34.91486000">
        <ele>255.00000</ele>
        <time>2010-01-01T03:24:20Z</time>
      </trkpt>
      <trkpt lat="31.67726000" lon="34.91487000">
        <ele>256.00000</ele>
        <time>2010-01-01T03:24:23Z</time>
      </trkpt>
      <trkpt lat="31.67732000" lon="34.91491000">
        <ele>256.00000</ele>
        <time>2010-01-01T03:24:26Z</time>
      </trkpt>
      <trkpt lat="31.67736000" lon="34.91498000">
        <ele>256.00000</ele>
        <time>2010-01-01T03:24:28Z</time>
      </trkpt>
      <trkpt lat="31.67745000" lon="34.91520000">
        <ele>256.00000</ele>
        <time>2010-01-01T03:24:37Z</time>
      </trkpt>
      <trkpt lat="31.67774000" lon="34.91574000">
        <ele>261.00000</ele>
        <time>2010-01-01T03:24:59Z</time>
      </trkpt>
      <trkpt lat="31.67775000" lon="34.91588000">
        <ele>261.00000</ele>
        <time>2010-01-01T03:25:03Z</time>
      </trkpt>
      <trkpt lat="31.67773000" lon="34.91596000">
        <ele>261.00000</ele>
        <time>2010-01-01T03:25:06Z</time>
      </trkpt>
      <trkpt lat="31.67760000" lon="34.91624000">
        <ele>260.00000</ele>
        <time>2010-01-01T03:25:17Z</time>
      </trkpt>
      <trkpt lat="31.67754000" lon="34.91634000">
        <ele>260.00000</ele>
        <time>2010-01-01T03:25:21Z</time>
      </trkpt>
      <trkpt lat="31.67747000" lon="34.91647000">
        <ele>260.00000</ele>
        <time>2010-01-01T03:25:26Z</time>
      </trkpt>
      <trkpt lat="31.67738000" lon="34.91667000">
        <ele>259.00000</ele>
        <time>2010-01-01T03:25:34Z</time>
      </trkpt>
      <trkpt lat="31.67734000" lon="34.91690000">
        <ele>260.00000</ele>
        <time>2010-01-01T03:25:42Z</time>
      </trkpt>
      <trkpt lat="31.67870000" lon="34.91713000">
        <ele>259.00000</ele>
        <time>2010-01-01T03:26:37Z</time>
      </trkpt>
      <trkpt lat="31.67869000" lon="34.91713000">
        <ele>259.00000</ele>
        <time>2010-01-01T03:26:38Z</time>
      </trkpt>
      <trkpt lat="31.67912000" lon="34.91720000">
        <ele>255.00000</ele>
        <time>2010-01-01T03:26:55Z</time>
      </trkpt>
      <trkpt lat="31.67949000" lon="34.91730000">
        <ele>250.00000</ele>
        <time>2010-01-01T03:27:10Z</time>
      </trkpt>
      <trkpt lat="31.67927000" lon="34.91730000">
        <ele>252.00000</ele>
        <time>2010-01-01T03:27:19Z</time>
      </trkpt>
      <trkpt lat="31.67916000" lon="34.91733000">
        <ele>253.00000</ele>
        <time>2010-01-01T03:27:23Z</time>
      </trkpt>
      <trkpt lat="31.67900000" lon="34.91742000">
        <ele>253.00000</ele>
        <time>2010-01-01T03:27:31Z</time>
      </trkpt>
      <trkpt lat="31.67884000" lon="34.91750000">
        <ele>254.00000</ele>
        <time>2010-01-01T03:27:38Z</time>
      </trkpt>
      <trkpt lat="31.67873000" lon="34.91760000">
        <ele>254.00000</ele>
        <time>2010-01-01T03:27:43Z</time>
      </trkpt>
      <trkpt lat="31.67861000" lon="34.91787000">
        <ele>253.00000</ele>
        <time>2010-01-01T03:27:53Z</time>
      </trkpt>
      <trkpt lat="31.67855000" lon="34.91803000">
        <ele>253.00000</ele>
        <time>2010-01-01T03:27:59Z</time>
      </trkpt>
      <trkpt lat="31.67846000" lon="34.91844000">
        <ele>255.00000</ele>
        <time>2010-01-01T03:28:14Z</time>
      </trkpt>
      <trkpt lat="31.67848000" lon="34.91856000">
        <ele>255.00000</ele>
        <time>2010-01-01T03:28:18Z</time>
      </trkpt>
      <trkpt lat="31.67857000" lon="34.91863000">
        <ele>254.00000</ele>
        <time>2010-01-01T03:28:22Z</time>
      </trkpt>
      <trkpt lat="31.67864000" lon="34.91865000">
        <ele>254.00000</ele>
        <time>2010-01-01T03:28:25Z</time>
      </trkpt>
      <trkpt lat="31.67874000" lon="34.91863000">
        <ele>254.00000</ele>
        <time>2010-01-01T03:28:29Z</time>
      </trkpt>
      <trkpt lat="31.67899000" lon="34.91868000">
        <ele>256.00000</ele>
        <time>2010-01-01T03:28:39Z</time>
      </trkpt>
      <trkpt lat="31.67912000" lon="34.91876000">
        <ele>258.00000</ele>
        <time>2010-01-01T03:28:45Z</time>
      </trkpt>
      <trkpt lat="31.67946000" lon="34.91905000">
        <ele>261.00000</ele>
        <time>2010-01-01T03:29:02Z</time>
      </trkpt>
      <trkpt lat="31.67945000" lon="34.91905000">
        <ele>261.00000</ele>
        <time>2010-01-01T03:29:03Z</time>
      </trkpt>
      <trkpt lat="31.67965000" lon="34.91921000">
        <ele>261.00000</ele>
        <time>2010-01-01T03:29:12Z</time>
      </trkpt>
      <trkpt lat="31.67969000" lon="34.91927000">
        <ele>262.00000</ele>
        <time>2010-01-01T03:29:15Z</time>
      </trkpt>
      <trkpt lat="31.67972000" lon="34.91935000">
        <ele>262.00000</ele>
        <time>2010-01-01T03:29:18Z</time>
      </trkpt>
      <trkpt lat="31.67973000" lon="34.91944000">
        <ele>263.00000</ele>
        <time>2010-01-01T03:29:21Z</time>
      </trkpt>
      <trkpt lat="31.67972000" lon="34.91951000">
        <ele>264.00000</ele>
        <time>2010-01-01T03:29:23Z</time>
      </trkpt>
      <trkpt lat="31.67966000" lon="34.91962000">
        <ele>266.00000</ele>
        <time>2010-01-01T03:29:28Z</time>
      </trkpt>
      <trkpt lat="31.67957000" lon="34.91990000">
        <ele>270.00000</ele>
        <time>2010-01-01T03:29:38Z</time>
      </trkpt>
      <trkpt lat="31.67944000" lon="34.92025000">
        <ele>274.00000</ele>
        <time>2010-01-01T03:29:51Z</time>
      </trkpt>
      <trkpt lat="31.67943000" lon="34.92037000">
        <ele>275.00000</ele>
        <time>2010-01-01T03:29:55Z</time>
      </trkpt>
      <trkpt lat="31.67945000" lon="34.92054000">
        <ele>277.00000</ele>
        <time>2010-01-01T03:30:01Z</time>
      </trkpt>
      <trkpt lat="31.67943000" lon="34.92062000">
        <ele>278.00000</ele>
        <time>2010-01-01T03:30:04Z</time>
      </trkpt>
      <trkpt lat="31.67925000" lon="34.92099000">
        <ele>279.00000</ele>
        <time>2010-01-01T03:30:18Z</time>
      </trkpt>
      <trkpt lat="31.67910000" lon="34.92138000">
        <ele>282.00000</ele>
        <time>2010-01-01T03:30:33Z</time>
      </trkpt>
      <trkpt lat="31.67904000" lon="34.92166000">
        <ele>284.00000</ele>
        <time>2010-01-01T03:30:43Z</time>
      </trkpt>
      <trkpt lat="31.67903000" lon="34.92196000">
        <ele>285.00000</ele>
        <time>2010-01-01T03:30:53Z</time>
      </trkpt>
      <trkpt lat="31.67904000" lon="34.92213000">
        <ele>286.00000</ele>
        <time>2010-01-01T03:30:59Z</time>
      </trkpt>
      <trkpt lat="31.67909000" lon="34.92233000">
        <ele>287.00000</ele>
        <time>2010-01-01T03:31:06Z</time>
      </trkpt>
      <trkpt lat="31.67921000" lon="34.92265000">
        <ele>288.00000</ele>
        <time>2010-01-01T03:31:18Z</time>
      </trkpt>
      <trkpt lat="31.67921000" lon="34.92264000">
        <ele>288.00000</ele>
        <time>2010-01-01T03:31:18Z</time>
      </trkpt>
      <trkpt lat="31.67933000" lon="34.92300000">
        <ele>290.00000</ele>
        <time>2010-01-01T03:31:31Z</time>
      </trkpt>
      <trkpt lat="31.67941000" lon="34.92328000">
        <ele>291.00000</ele>
        <time>2010-01-01T03:31:41Z</time>
      </trkpt>
      <trkpt lat="31.67946000" lon="34.92339000">
        <ele>292.00000</ele>
        <time>2010-01-01T03:31:46Z</time>
      </trkpt>
      <trkpt lat="31.67954000" lon="34.92381000">
        <ele>295.00000</ele>
        <time>2010-01-01T03:32:00Z</time>
      </trkpt>
      <trkpt lat="31.67957000" lon="34.92393000">
        <ele>296.00000</ele>
        <time>2010-01-01T03:32:04Z</time>
      </trkpt>
      <trkpt lat="31.67958000" lon="34.92413000">
        <ele>298.00000</ele>
        <time>2010-01-01T03:32:11Z</time>
      </trkpt>
      <trkpt lat="31.67959790" lon="34.92435690">
        <ele>300.00000</ele>
        <time>2010-01-01T03:32:19Z</time>
      </trkpt>
      <trkpt lat="31.67943360" lon="34.92493620">
        <ele>304.00000</ele>
        <time>2010-01-01T03:32:40Z</time>
      </trkpt>
      <trkpt lat="31.67916880" lon="34.92530100">
        <ele>306.00000</ele>
        <time>2010-01-01T03:32:56Z</time>
      </trkpt>
      <trkpt lat="31.67888580" lon="34.92548340">
        <ele>308.00000</ele>
        <time>2010-01-01T03:33:09Z</time>
      </trkpt>
      <trkpt lat="31.67842010" lon="34.92567650">
        <ele>308.00000</ele>
        <time>2010-01-01T03:33:29Z</time>
      </trkpt>
      <trkpt lat="31.67822000" lon="34.92595000">
        <ele>311.00000</ele>
        <time>2010-01-01T03:33:41Z</time>
      </trkpt>
      <trkpt lat="31.67812000" lon="34.92612000">
        <ele>314.00000</ele>
        <time>2010-01-01T03:33:48Z</time>
      </trkpt>
      <trkpt lat="31.67783000" lon="34.92675000">
        <ele>320.00000</ele>
        <time>2010-01-01T03:34:13Z</time>
      </trkpt>
      <trkpt lat="31.67772000" lon="34.92702000">
        <ele>324.00000</ele>
        <time>2010-01-01T03:34:23Z</time>
      </trkpt>
      <trkpt lat="31.67771000" lon="34.92714000">
        <ele>326.00000</ele>
        <time>2010-01-01T03:34:27Z</time>
      </trkpt>
      <trkpt lat="31.67768000" lon="34.92894000">
        <ele>333.00000</ele>
        <time>2010-01-01T03:35:28Z</time>
      </trkpt>
      <trkpt lat="31.67761000" lon="34.93002000">
        <ele>321.00000</ele>
        <time>2010-01-01T03:36:05Z</time>
      </trkpt>
    </trkseg>
  </trk>
</gpx>

